<?xml version="1.0" encoding="UTF-8" standalone="no" ?>
<gpx xmlns="http://www.topografix.com/GPX/1/1" xmlns:xsi="http://www.w3.org/2001/XMLSchema-instance" xsi:schemaLocation="http://www.topografix.com/GPX/1/1 http://www.topografix.com/GPX/1/1/gpx.xsd" version="1.1" creator="VisuGPX - https://www.visugpx.com">
  <metadata>
    <name>09-DEC-13 14:23:10</name>
    <desc><![CDATA[Ok]]></desc>
  </metadata>
  <trk>
    <name><![CDATA[09-DEC-13 14:23:10]]></name>
    <trkseg>
      <trkpt lat="43.90396" lon="5.35746">
        <ele>162.6</ele>
        <time>2013-12-09T08:34:51Z</time>
      </trkpt>
      <trkpt lat="43.90392" lon="5.35751">
        <ele>164.04</ele>
        <time>2013-12-09T08:35:16Z</time>
      </trkpt>
      <trkpt lat="43.90391" lon="5.35748">
        <ele>165.96</ele>
        <time>2013-12-09T08:35:46Z</time>
      </trkpt>
      <trkpt lat="43.90392" lon="5.35744">
        <ele>167.41</ele>
        <time>2013-12-09T08:36:08Z</time>
      </trkpt>
      <trkpt lat="43.90392" lon="5.35747">
        <ele>168.37</ele>
        <time>2013-12-09T08:36:27Z</time>
      </trkpt>
      <trkpt lat="43.90392" lon="5.35747">
        <ele>168.85</ele>
        <time>2013-12-09T08:36:37Z</time>
      </trkpt>
      <trkpt lat="43.90391" lon="5.35746">
        <ele>169.33</ele>
        <time>2013-12-09T08:36:51Z</time>
      </trkpt>
      <trkpt lat="43.90393" lon="5.35747">
        <ele>170.77</ele>
        <time>2013-12-09T08:37:10Z</time>
      </trkpt>
      <trkpt lat="43.90395" lon="5.35752">
        <ele>171.73</ele>
        <time>2013-12-09T08:37:22Z</time>
      </trkpt>
      <trkpt lat="43.90403" lon="5.35749">
        <ele>172.69</ele>
        <time>2013-12-09T08:37:34Z</time>
      </trkpt>
      <trkpt lat="43.90412" lon="5.35742">
        <ele>173.17</ele>
        <time>2013-12-09T08:37:46Z</time>
      </trkpt>
      <trkpt lat="43.90422" lon="5.35727">
        <ele>175.1</ele>
        <time>2013-12-09T08:38:01Z</time>
      </trkpt>
      <trkpt lat="43.90422" lon="5.35704">
        <ele>176.06</ele>
        <time>2013-12-09T08:38:17Z</time>
      </trkpt>
      <trkpt lat="43.90423" lon="5.35683">
        <ele>177.5</ele>
        <time>2013-12-09T08:38:32Z</time>
      </trkpt>
      <trkpt lat="43.90426" lon="5.35665">
        <ele>178.46</ele>
        <time>2013-12-09T08:38:45Z</time>
      </trkpt>
      <trkpt lat="43.90427" lon="5.35643">
        <ele>179.42</ele>
        <time>2013-12-09T08:38:59Z</time>
      </trkpt>
      <trkpt lat="43.90428" lon="5.35619">
        <ele>180.87</ele>
        <time>2013-12-09T08:39:13Z</time>
      </trkpt>
      <trkpt lat="43.90431" lon="5.35599">
        <ele>182.31</ele>
        <time>2013-12-09T08:39:27Z</time>
      </trkpt>
      <trkpt lat="43.90434" lon="5.35578">
        <ele>183.27</ele>
        <time>2013-12-09T08:39:41Z</time>
      </trkpt>
      <trkpt lat="43.90438" lon="5.35565">
        <ele>184.23</ele>
        <time>2013-12-09T08:39:51Z</time>
      </trkpt>
      <trkpt lat="43.90446" lon="5.35549">
        <ele>186.15</ele>
        <time>2013-12-09T08:40:05Z</time>
      </trkpt>
      <trkpt lat="43.90448" lon="5.35544">
        <ele>186.63</ele>
        <time>2013-12-09T08:40:17Z</time>
      </trkpt>
      <trkpt lat="43.90458" lon="5.35531">
        <ele>188.08</ele>
        <time>2013-12-09T08:40:30Z</time>
      </trkpt>
      <trkpt lat="43.90461" lon="5.35526">
        <ele>188.56</ele>
        <time>2013-12-09T08:40:35Z</time>
      </trkpt>
      <trkpt lat="43.90465" lon="5.35519">
        <ele>189.52</ele>
        <time>2013-12-09T08:40:46Z</time>
      </trkpt>
      <trkpt lat="43.90472" lon="5.35509">
        <ele>190.96</ele>
        <time>2013-12-09T08:40:57Z</time>
      </trkpt>
      <trkpt lat="43.90482" lon="5.35499">
        <ele>191.92</ele>
        <time>2013-12-09T08:41:09Z</time>
      </trkpt>
      <trkpt lat="43.90495" lon="5.35492">
        <ele>193.36</ele>
        <time>2013-12-09T08:41:21Z</time>
      </trkpt>
      <trkpt lat="43.90497" lon="5.35491">
        <ele>193.36</ele>
        <time>2013-12-09T08:41:23Z</time>
      </trkpt>
      <trkpt lat="43.90514" lon="5.35488">
        <ele>195.28</ele>
        <time>2013-12-09T08:41:38Z</time>
      </trkpt>
      <trkpt lat="43.90517" lon="5.35487">
        <ele>195.77</ele>
        <time>2013-12-09T08:41:42Z</time>
      </trkpt>
      <trkpt lat="43.90529" lon="5.35479">
        <ele>197.21</ele>
        <time>2013-12-09T08:41:59Z</time>
      </trkpt>
      <trkpt lat="43.90531" lon="5.35475">
        <ele>198.17</ele>
        <time>2013-12-09T08:42:06Z</time>
      </trkpt>
      <trkpt lat="43.90543" lon="5.35476">
        <ele>198.65</ele>
        <time>2013-12-09T08:42:21Z</time>
      </trkpt>
      <trkpt lat="43.90547" lon="5.35474">
        <ele>198.65</ele>
        <time>2013-12-09T08:42:26Z</time>
      </trkpt>
      <trkpt lat="43.90557" lon="5.35465">
        <ele>199.61</ele>
        <time>2013-12-09T08:42:37Z</time>
      </trkpt>
      <trkpt lat="43.90559" lon="5.35462">
        <ele>199.61</ele>
        <time>2013-12-09T08:42:39Z</time>
      </trkpt>
      <trkpt lat="43.90569" lon="5.35446">
        <ele>201.05</ele>
        <time>2013-12-09T08:42:54Z</time>
      </trkpt>
      <trkpt lat="43.90582" lon="5.35431">
        <ele>202.01</ele>
        <time>2013-12-09T08:43:09Z</time>
      </trkpt>
      <trkpt lat="43.90584" lon="5.35428">
        <ele>202.01</ele>
        <time>2013-12-09T08:43:12Z</time>
      </trkpt>
      <trkpt lat="43.90595" lon="5.35418">
        <ele>202.98</ele>
        <time>2013-12-09T08:43:25Z</time>
      </trkpt>
      <trkpt lat="43.90597" lon="5.35416">
        <ele>202.98</ele>
        <time>2013-12-09T08:43:27Z</time>
      </trkpt>
      <trkpt lat="43.90608" lon="5.35407">
        <ele>204.42</ele>
        <time>2013-12-09T08:43:40Z</time>
      </trkpt>
      <trkpt lat="43.90605" lon="5.35395">
        <ele>205.38</ele>
        <time>2013-12-09T08:43:54Z</time>
      </trkpt>
      <trkpt lat="43.90605" lon="5.35387">
        <ele>206.82</ele>
        <time>2013-12-09T08:44:03Z</time>
      </trkpt>
      <trkpt lat="43.90598" lon="5.35374">
        <ele>207.78</ele>
        <time>2013-12-09T08:44:14Z</time>
      </trkpt>
      <trkpt lat="43.90599" lon="5.35353">
        <ele>209.22</ele>
        <time>2013-12-09T08:44:28Z</time>
      </trkpt>
      <trkpt lat="43.906" lon="5.3535">
        <ele>209.7</ele>
        <time>2013-12-09T08:44:30Z</time>
      </trkpt>
      <trkpt lat="43.90607" lon="5.35328">
        <ele>211.63</ele>
        <time>2013-12-09T08:44:48Z</time>
      </trkpt>
      <trkpt lat="43.9061" lon="5.35311">
        <ele>214.99</ele>
        <time>2013-12-09T08:45:01Z</time>
      </trkpt>
      <trkpt lat="43.90612" lon="5.35298">
        <ele>217.4</ele>
        <time>2013-12-09T08:45:15Z</time>
      </trkpt>
      <trkpt lat="43.90613" lon="5.35289">
        <ele>218.36</ele>
        <time>2013-12-09T08:45:21Z</time>
      </trkpt>
      <trkpt lat="43.90612" lon="5.35269">
        <ele>220.76</ele>
        <time>2013-12-09T08:45:36Z</time>
      </trkpt>
      <trkpt lat="43.90613" lon="5.35254">
        <ele>222.68</ele>
        <time>2013-12-09T08:45:49Z</time>
      </trkpt>
      <trkpt lat="43.90612" lon="5.35236">
        <ele>224.61</ele>
        <time>2013-12-09T08:46:03Z</time>
      </trkpt>
      <trkpt lat="43.90617" lon="5.35223">
        <ele>227.01</ele>
        <time>2013-12-09T08:46:18Z</time>
      </trkpt>
      <trkpt lat="43.90621" lon="5.3521">
        <ele>229.89</ele>
        <time>2013-12-09T08:46:33Z</time>
      </trkpt>
      <trkpt lat="43.90627" lon="5.35196">
        <ele>231.81</ele>
        <time>2013-12-09T08:46:49Z</time>
      </trkpt>
      <trkpt lat="43.90626" lon="5.35172">
        <ele>234.22</ele>
        <time>2013-12-09T08:47:05Z</time>
      </trkpt>
      <trkpt lat="43.9063" lon="5.35159">
        <ele>236.14</ele>
        <time>2013-12-09T08:47:18Z</time>
      </trkpt>
      <trkpt lat="43.90636" lon="5.3514">
        <ele>238.06</ele>
        <time>2013-12-09T08:47:34Z</time>
      </trkpt>
      <trkpt lat="43.90645" lon="5.35123">
        <ele>239.99</ele>
        <time>2013-12-09T08:47:50Z</time>
      </trkpt>
      <trkpt lat="43.90649" lon="5.35114">
        <ele>240.47</ele>
        <time>2013-12-09T08:48:06Z</time>
      </trkpt>
      <trkpt lat="43.9065" lon="5.35114">
        <ele>240.95</ele>
        <time>2013-12-09T08:48:21Z</time>
      </trkpt>
      <trkpt lat="43.9065" lon="5.35109">
        <ele>241.43</ele>
        <time>2013-12-09T08:48:35Z</time>
      </trkpt>
      <trkpt lat="43.90649" lon="5.35108">
        <ele>242.39</ele>
        <time>2013-12-09T08:48:54Z</time>
      </trkpt>
      <trkpt lat="43.90648" lon="5.35116">
        <ele>243.83</ele>
        <time>2013-12-09T08:49:29Z</time>
      </trkpt>
      <trkpt lat="43.90651" lon="5.35102">
        <ele>244.79</ele>
        <time>2013-12-09T08:49:48Z</time>
      </trkpt>
      <trkpt lat="43.90654" lon="5.35087">
        <ele>245.27</ele>
        <time>2013-12-09T08:50:03Z</time>
      </trkpt>
      <trkpt lat="43.90655" lon="5.35077">
        <ele>244.79</ele>
        <time>2013-12-09T08:50:17Z</time>
      </trkpt>
      <trkpt lat="43.90658" lon="5.35059">
        <ele>244.79</ele>
        <time>2013-12-09T08:50:31Z</time>
      </trkpt>
      <trkpt lat="43.90666" lon="5.35046">
        <ele>245.75</ele>
        <time>2013-12-09T08:50:44Z</time>
      </trkpt>
      <trkpt lat="43.90673" lon="5.35036">
        <ele>245.75</ele>
        <time>2013-12-09T08:50:52Z</time>
      </trkpt>
      <trkpt lat="43.90676" lon="5.35032">
        <ele>245.75</ele>
        <time>2013-12-09T08:50:56Z</time>
      </trkpt>
      <trkpt lat="43.90682" lon="5.35017">
        <ele>246.23</ele>
        <time>2013-12-09T08:51:10Z</time>
      </trkpt>
      <trkpt lat="43.90682" lon="5.35002">
        <ele>246.72</ele>
        <time>2013-12-09T08:51:24Z</time>
      </trkpt>
      <trkpt lat="43.90676" lon="5.3499">
        <ele>247.2</ele>
        <time>2013-12-09T08:51:38Z</time>
      </trkpt>
      <trkpt lat="43.9067" lon="5.34979">
        <ele>247.68</ele>
        <time>2013-12-09T08:51:48Z</time>
      </trkpt>
      <trkpt lat="43.90671" lon="5.34963">
        <ele>249.12</ele>
        <time>2013-12-09T08:52:02Z</time>
      </trkpt>
      <trkpt lat="43.90671" lon="5.34943">
        <ele>250.56</ele>
        <time>2013-12-09T08:52:17Z</time>
      </trkpt>
      <trkpt lat="43.90672" lon="5.34926">
        <ele>251.52</ele>
        <time>2013-12-09T08:52:30Z</time>
      </trkpt>
      <trkpt lat="43.90673" lon="5.34925">
        <ele>251.52</ele>
        <time>2013-12-09T08:52:31Z</time>
      </trkpt>
      <trkpt lat="43.90677" lon="5.3491">
        <ele>252.48</ele>
        <time>2013-12-09T08:52:45Z</time>
      </trkpt>
      <trkpt lat="43.90678" lon="5.34904">
        <ele>252.96</ele>
        <time>2013-12-09T08:52:50Z</time>
      </trkpt>
      <trkpt lat="43.90688" lon="5.34894">
        <ele>253.44</ele>
        <time>2013-12-09T08:53:05Z</time>
      </trkpt>
      <trkpt lat="43.90701" lon="5.34891">
        <ele>252.48</ele>
        <time>2013-12-09T08:53:24Z</time>
      </trkpt>
      <trkpt lat="43.90709" lon="5.34889">
        <ele>252</ele>
        <time>2013-12-09T08:53:37Z</time>
      </trkpt>
      <trkpt lat="43.90714" lon="5.34886">
        <ele>252</ele>
        <time>2013-12-09T08:53:43Z</time>
      </trkpt>
      <trkpt lat="43.90727" lon="5.34885">
        <ele>251.52</ele>
        <time>2013-12-09T08:53:59Z</time>
      </trkpt>
      <trkpt lat="43.90732" lon="5.34878">
        <ele>252</ele>
        <time>2013-12-09T08:54:11Z</time>
      </trkpt>
      <trkpt lat="43.90732" lon="5.34863">
        <ele>252</ele>
        <time>2013-12-09T08:54:24Z</time>
      </trkpt>
      <trkpt lat="43.90741" lon="5.34851">
        <ele>251.52</ele>
        <time>2013-12-09T08:54:38Z</time>
      </trkpt>
      <trkpt lat="43.90756" lon="5.3484">
        <ele>252.96</ele>
        <time>2013-12-09T08:54:55Z</time>
      </trkpt>
      <trkpt lat="43.90768" lon="5.34835">
        <ele>253.44</ele>
        <time>2013-12-09T08:55:09Z</time>
      </trkpt>
      <trkpt lat="43.90777" lon="5.34834">
        <ele>254.89</ele>
        <time>2013-12-09T08:55:22Z</time>
      </trkpt>
      <trkpt lat="43.90781" lon="5.34837">
        <ele>254.89</ele>
        <time>2013-12-09T08:55:27Z</time>
      </trkpt>
      <trkpt lat="43.90786" lon="5.34827">
        <ele>255.85</ele>
        <time>2013-12-09T08:55:41Z</time>
      </trkpt>
      <trkpt lat="43.90782" lon="5.34811">
        <ele>255.37</ele>
        <time>2013-12-09T08:55:57Z</time>
      </trkpt>
      <trkpt lat="43.90785" lon="5.348">
        <ele>256.33</ele>
        <time>2013-12-09T08:56:12Z</time>
      </trkpt>
      <trkpt lat="43.90783" lon="5.34791">
        <ele>256.33</ele>
        <time>2013-12-09T08:56:25Z</time>
      </trkpt>
      <trkpt lat="43.90784" lon="5.3479">
        <ele>256.33</ele>
        <time>2013-12-09T08:56:49Z</time>
      </trkpt>
      <trkpt lat="43.90786" lon="5.34787">
        <ele>256.81</ele>
        <time>2013-12-09T08:57:03Z</time>
      </trkpt>
      <trkpt lat="43.90785" lon="5.34784">
        <ele>257.29</ele>
        <time>2013-12-09T08:57:33Z</time>
      </trkpt>
      <trkpt lat="43.90786" lon="5.34785">
        <ele>258.25</ele>
        <time>2013-12-09T08:58:00Z</time>
      </trkpt>
      <trkpt lat="43.90781" lon="5.34796">
        <ele>258.73</ele>
        <time>2013-12-09T08:58:14Z</time>
      </trkpt>
      <trkpt lat="43.9078" lon="5.34809">
        <ele>259.21</ele>
        <time>2013-12-09T08:58:29Z</time>
      </trkpt>
      <trkpt lat="43.90785" lon="5.34821">
        <ele>260.17</ele>
        <time>2013-12-09T08:58:43Z</time>
      </trkpt>
      <trkpt lat="43.90791" lon="5.34833">
        <ele>261.62</ele>
        <time>2013-12-09T08:58:57Z</time>
      </trkpt>
      <trkpt lat="43.90798" lon="5.34829">
        <ele>262.1</ele>
        <time>2013-12-09T08:59:10Z</time>
      </trkpt>
      <trkpt lat="43.90807" lon="5.34822">
        <ele>262.58</ele>
        <time>2013-12-09T08:59:25Z</time>
      </trkpt>
      <trkpt lat="43.90809" lon="5.34819">
        <ele>262.58</ele>
        <time>2013-12-09T08:59:28Z</time>
      </trkpt>
      <trkpt lat="43.90818" lon="5.34819">
        <ele>264.02</ele>
        <time>2013-12-09T08:59:38Z</time>
      </trkpt>
      <trkpt lat="43.90823" lon="5.34823">
        <ele>264.5</ele>
        <time>2013-12-09T08:59:44Z</time>
      </trkpt>
      <trkpt lat="43.90829" lon="5.34827">
        <ele>264.98</ele>
        <time>2013-12-09T08:59:51Z</time>
      </trkpt>
      <trkpt lat="43.90845" lon="5.34832">
        <ele>265.94</ele>
        <time>2013-12-09T09:00:08Z</time>
      </trkpt>
      <trkpt lat="43.90855" lon="5.34835">
        <ele>266.9</ele>
        <time>2013-12-09T09:00:21Z</time>
      </trkpt>
      <trkpt lat="43.90867" lon="5.34834">
        <ele>268.35</ele>
        <time>2013-12-09T09:00:36Z</time>
      </trkpt>
      <trkpt lat="43.90872" lon="5.34831">
        <ele>269.31</ele>
        <time>2013-12-09T09:00:48Z</time>
      </trkpt>
      <trkpt lat="43.90869" lon="5.34826">
        <ele>269.79</ele>
        <time>2013-12-09T09:01:09Z</time>
      </trkpt>
      <trkpt lat="43.90867" lon="5.34834">
        <ele>269.79</ele>
        <time>2013-12-09T09:01:23Z</time>
      </trkpt>
      <trkpt lat="43.90866" lon="5.34832">
        <ele>270.27</ele>
        <time>2013-12-09T09:01:48Z</time>
      </trkpt>
      <trkpt lat="43.90864" lon="5.34827">
        <ele>270.27</ele>
        <time>2013-12-09T09:02:02Z</time>
      </trkpt>
      <trkpt lat="43.90866" lon="5.34822">
        <ele>270.75</ele>
        <time>2013-12-09T09:02:08Z</time>
      </trkpt>
      <trkpt lat="43.90868" lon="5.34806">
        <ele>272.19</ele>
        <time>2013-12-09T09:02:20Z</time>
      </trkpt>
      <trkpt lat="43.90865" lon="5.34791">
        <ele>274.11</ele>
        <time>2013-12-09T09:02:33Z</time>
      </trkpt>
      <trkpt lat="43.90866" lon="5.34792">
        <ele>274.11</ele>
        <time>2013-12-09T09:02:54Z</time>
      </trkpt>
      <trkpt lat="43.90863" lon="5.34788">
        <ele>274.59</ele>
        <time>2013-12-09T09:03:08Z</time>
      </trkpt>
      <trkpt lat="43.90861" lon="5.34789">
        <ele>274.59</ele>
        <time>2013-12-09T09:03:24Z</time>
      </trkpt>
      <trkpt lat="43.90859" lon="5.34788">
        <ele>274.59</ele>
        <time>2013-12-09T09:03:41Z</time>
      </trkpt>
      <trkpt lat="43.90862" lon="5.34784">
        <ele>275.56</ele>
        <time>2013-12-09T09:03:58Z</time>
      </trkpt>
      <trkpt lat="43.90863" lon="5.34786">
        <ele>276.04</ele>
        <time>2013-12-09T09:04:18Z</time>
      </trkpt>
      <trkpt lat="43.9087" lon="5.34784">
        <ele>277</ele>
        <time>2013-12-09T09:04:30Z</time>
      </trkpt>
      <trkpt lat="43.90872" lon="5.34776">
        <ele>277.96</ele>
        <time>2013-12-09T09:04:40Z</time>
      </trkpt>
      <trkpt lat="43.90873" lon="5.34774">
        <ele>277.96</ele>
        <time>2013-12-09T09:04:41Z</time>
      </trkpt>
      <trkpt lat="43.90871" lon="5.34753">
        <ele>279.88</ele>
        <time>2013-12-09T09:04:55Z</time>
      </trkpt>
      <trkpt lat="43.90871" lon="5.3474">
        <ele>280.84</ele>
        <time>2013-12-09T09:05:08Z</time>
      </trkpt>
      <trkpt lat="43.90869" lon="5.34727">
        <ele>280.84</ele>
        <time>2013-12-09T09:05:21Z</time>
      </trkpt>
      <trkpt lat="43.90876" lon="5.34714">
        <ele>282.28</ele>
        <time>2013-12-09T09:05:37Z</time>
      </trkpt>
      <trkpt lat="43.90882" lon="5.34711">
        <ele>284.21</ele>
        <time>2013-12-09T09:05:45Z</time>
      </trkpt>
      <trkpt lat="43.90887" lon="5.34707">
        <ele>285.17</ele>
        <time>2013-12-09T09:05:52Z</time>
      </trkpt>
      <trkpt lat="43.9089" lon="5.34692">
        <ele>287.09</ele>
        <time>2013-12-09T09:06:07Z</time>
      </trkpt>
      <trkpt lat="43.90899" lon="5.34684">
        <ele>289.49</ele>
        <time>2013-12-09T09:06:20Z</time>
      </trkpt>
      <trkpt lat="43.90908" lon="5.34676">
        <ele>291.9</ele>
        <time>2013-12-09T09:06:32Z</time>
      </trkpt>
      <trkpt lat="43.90914" lon="5.34669">
        <ele>292.86</ele>
        <time>2013-12-09T09:06:47Z</time>
      </trkpt>
      <trkpt lat="43.90924" lon="5.34661">
        <ele>293.82</ele>
        <time>2013-12-09T09:06:59Z</time>
      </trkpt>
      <trkpt lat="43.90938" lon="5.34653">
        <ele>294.78</ele>
        <time>2013-12-09T09:07:15Z</time>
      </trkpt>
      <trkpt lat="43.90946" lon="5.34649">
        <ele>294.3</ele>
        <time>2013-12-09T09:07:26Z</time>
      </trkpt>
      <trkpt lat="43.90959" lon="5.34646">
        <ele>294.3</ele>
        <time>2013-12-09T09:07:41Z</time>
      </trkpt>
      <trkpt lat="43.90956" lon="5.34647">
        <ele>294.78</ele>
        <time>2013-12-09T09:07:55Z</time>
      </trkpt>
      <trkpt lat="43.90956" lon="5.34648">
        <ele>294.78</ele>
        <time>2013-12-09T09:08:08Z</time>
      </trkpt>
      <trkpt lat="43.90963" lon="5.34647">
        <ele>295.26</ele>
        <time>2013-12-09T09:08:20Z</time>
      </trkpt>
      <trkpt lat="43.90968" lon="5.34649">
        <ele>295.74</ele>
        <time>2013-12-09T09:08:26Z</time>
      </trkpt>
      <trkpt lat="43.9097" lon="5.3465">
        <ele>296.22</ele>
        <time>2013-12-09T09:08:29Z</time>
      </trkpt>
      <trkpt lat="43.90972" lon="5.34651">
        <ele>296.22</ele>
        <time>2013-12-09T09:08:31Z</time>
      </trkpt>
      <trkpt lat="43.90984" lon="5.34652">
        <ele>296.7</ele>
        <time>2013-12-09T09:08:43Z</time>
      </trkpt>
      <trkpt lat="43.9099" lon="5.34655">
        <ele>297.18</ele>
        <time>2013-12-09T09:08:57Z</time>
      </trkpt>
      <trkpt lat="43.90996" lon="5.34654">
        <ele>295.26</ele>
        <time>2013-12-09T09:09:09Z</time>
      </trkpt>
      <trkpt lat="43.91001" lon="5.34662">
        <ele>294.3</ele>
        <time>2013-12-09T09:09:21Z</time>
      </trkpt>
      <trkpt lat="43.91006" lon="5.34674">
        <ele>293.34</ele>
        <time>2013-12-09T09:09:36Z</time>
      </trkpt>
      <trkpt lat="43.91015" lon="5.34682">
        <ele>294.3</ele>
        <time>2013-12-09T09:09:49Z</time>
      </trkpt>
      <trkpt lat="43.91026" lon="5.34684">
        <ele>293.82</ele>
        <time>2013-12-09T09:10:04Z</time>
      </trkpt>
      <trkpt lat="43.91032" lon="5.34684">
        <ele>292.38</ele>
        <time>2013-12-09T09:10:17Z</time>
      </trkpt>
      <trkpt lat="43.91033" lon="5.3468">
        <ele>291.42</ele>
        <time>2013-12-09T09:10:31Z</time>
      </trkpt>
      <trkpt lat="43.91037" lon="5.34683">
        <ele>290.94</ele>
        <time>2013-12-09T09:10:48Z</time>
      </trkpt>
      <trkpt lat="43.9104" lon="5.34683">
        <ele>290.46</ele>
        <time>2013-12-09T09:11:06Z</time>
      </trkpt>
      <trkpt lat="43.91043" lon="5.34683">
        <ele>288.53</ele>
        <time>2013-12-09T09:11:23Z</time>
      </trkpt>
      <trkpt lat="43.9105" lon="5.34685">
        <ele>286.61</ele>
        <time>2013-12-09T09:11:38Z</time>
      </trkpt>
      <trkpt lat="43.91052" lon="5.34681">
        <ele>284.69</ele>
        <time>2013-12-09T09:11:53Z</time>
      </trkpt>
      <trkpt lat="43.9105" lon="5.34678">
        <ele>284.21</ele>
        <time>2013-12-09T09:12:11Z</time>
      </trkpt>
      <trkpt lat="43.91047" lon="5.34675">
        <ele>283.73</ele>
        <time>2013-12-09T09:12:30Z</time>
      </trkpt>
      <trkpt lat="43.91042" lon="5.3467">
        <ele>281.8</ele>
        <time>2013-12-09T09:12:53Z</time>
      </trkpt>
      <trkpt lat="43.91039" lon="5.3466">
        <ele>283.25</ele>
        <time>2013-12-09T09:13:11Z</time>
      </trkpt>
      <trkpt lat="43.91037" lon="5.34657">
        <ele>282.77</ele>
        <time>2013-12-09T09:13:32Z</time>
      </trkpt>
      <trkpt lat="43.91028" lon="5.34648">
        <ele>282.28</ele>
        <time>2013-12-09T09:13:47Z</time>
      </trkpt>
      <trkpt lat="43.91019" lon="5.34643">
        <ele>281.32</ele>
        <time>2013-12-09T09:14:04Z</time>
      </trkpt>
      <trkpt lat="43.91013" lon="5.34643">
        <ele>279.88</ele>
        <time>2013-12-09T09:14:23Z</time>
      </trkpt>
      <trkpt lat="43.91012" lon="5.34642">
        <ele>279.4</ele>
        <time>2013-12-09T09:14:39Z</time>
      </trkpt>
      <trkpt lat="43.91007" lon="5.34644">
        <ele>277.48</ele>
        <time>2013-12-09T09:14:57Z</time>
      </trkpt>
      <trkpt lat="43.91003" lon="5.3464">
        <ele>276.52</ele>
        <time>2013-12-09T09:15:15Z</time>
      </trkpt>
      <trkpt lat="43.91006" lon="5.34642">
        <ele>276.52</ele>
        <time>2013-12-09T09:15:34Z</time>
      </trkpt>
      <trkpt lat="43.9101" lon="5.34643">
        <ele>277.48</ele>
        <time>2013-12-09T09:15:56Z</time>
      </trkpt>
      <trkpt lat="43.91007" lon="5.3464">
        <ele>277.96</ele>
        <time>2013-12-09T09:16:15Z</time>
      </trkpt>
      <trkpt lat="43.91001" lon="5.34641">
        <ele>277.48</ele>
        <time>2013-12-09T09:16:37Z</time>
      </trkpt>
      <trkpt lat="43.90989" lon="5.34628">
        <ele>275.56</ele>
        <time>2013-12-09T09:16:58Z</time>
      </trkpt>
      <trkpt lat="43.90973" lon="5.3463">
        <ele>274.11</ele>
        <time>2013-12-09T09:17:17Z</time>
      </trkpt>
      <trkpt lat="43.9097" lon="5.3463">
        <ele>274.11</ele>
        <time>2013-12-09T09:17:34Z</time>
      </trkpt>
      <trkpt lat="43.90977" lon="5.34626">
        <ele>275.07</ele>
        <time>2013-12-09T09:17:56Z</time>
      </trkpt>
      <trkpt lat="43.90979" lon="5.34622">
        <ele>275.56</ele>
        <time>2013-12-09T09:18:21Z</time>
      </trkpt>
      <trkpt lat="43.90974" lon="5.34625">
        <ele>276.04</ele>
        <time>2013-12-09T09:18:42Z</time>
      </trkpt>
      <trkpt lat="43.90977" lon="5.34632">
        <ele>276.04</ele>
        <time>2013-12-09T09:19:00Z</time>
      </trkpt>
      <trkpt lat="43.90977" lon="5.34638">
        <ele>276.04</ele>
        <time>2013-12-09T09:19:16Z</time>
      </trkpt>
      <trkpt lat="43.90986" lon="5.34622">
        <ele>275.56</ele>
        <time>2013-12-09T09:19:41Z</time>
      </trkpt>
      <trkpt lat="43.90973" lon="5.34626">
        <ele>277</ele>
        <time>2013-12-09T09:22:17Z</time>
      </trkpt>
      <trkpt lat="43.90961" lon="5.34607">
        <ele>276.52</ele>
        <time>2013-12-09T09:22:33Z</time>
      </trkpt>
      <trkpt lat="43.90965" lon="5.34604">
        <ele>276.04</ele>
        <time>2013-12-09T09:22:46Z</time>
      </trkpt>
      <trkpt lat="43.90969" lon="5.34602">
        <ele>276.52</ele>
        <time>2013-12-09T09:22:58Z</time>
      </trkpt>
      <trkpt lat="43.90975" lon="5.34617">
        <ele>277</ele>
        <time>2013-12-09T09:23:11Z</time>
      </trkpt>
      <trkpt lat="43.90979" lon="5.34629">
        <ele>277.48</ele>
        <time>2013-12-09T09:23:35Z</time>
      </trkpt>
      <trkpt lat="43.90983" lon="5.34626">
        <ele>277.96</ele>
        <time>2013-12-09T09:24:06Z</time>
      </trkpt>
      <trkpt lat="43.90984" lon="5.34624">
        <ele>278.92</ele>
        <time>2013-12-09T09:24:32Z</time>
      </trkpt>
      <trkpt lat="43.90982" lon="5.34624">
        <ele>279.4</ele>
        <time>2013-12-09T09:24:52Z</time>
      </trkpt>
      <trkpt lat="43.90975" lon="5.34617">
        <ele>279.4</ele>
        <time>2013-12-09T09:25:14Z</time>
      </trkpt>
      <trkpt lat="43.90972" lon="5.34608">
        <ele>280.36</ele>
        <time>2013-12-09T09:25:29Z</time>
      </trkpt>
      <trkpt lat="43.9097" lon="5.34599">
        <ele>281.32</ele>
        <time>2013-12-09T09:25:42Z</time>
      </trkpt>
      <trkpt lat="43.90965" lon="5.34582">
        <ele>282.77</ele>
        <time>2013-12-09T09:25:59Z</time>
      </trkpt>
      <trkpt lat="43.90967" lon="5.34565">
        <ele>283.73</ele>
        <time>2013-12-09T09:26:15Z</time>
      </trkpt>
      <trkpt lat="43.90967" lon="5.34548">
        <ele>282.77</ele>
        <time>2013-12-09T09:26:31Z</time>
      </trkpt>
      <trkpt lat="43.90965" lon="5.34533">
        <ele>283.25</ele>
        <time>2013-12-09T09:26:47Z</time>
      </trkpt>
      <trkpt lat="43.90963" lon="5.34518">
        <ele>281.8</ele>
        <time>2013-12-09T09:27:04Z</time>
      </trkpt>
      <trkpt lat="43.9096" lon="5.34505">
        <ele>280.36</ele>
        <time>2013-12-09T09:27:20Z</time>
      </trkpt>
      <trkpt lat="43.90959" lon="5.34502">
        <ele>280.36</ele>
        <time>2013-12-09T09:27:34Z</time>
      </trkpt>
      <trkpt lat="43.90956" lon="5.34494">
        <ele>279.4</ele>
        <time>2013-12-09T09:27:49Z</time>
      </trkpt>
      <trkpt lat="43.90951" lon="5.34482">
        <ele>277.96</ele>
        <time>2013-12-09T09:28:05Z</time>
      </trkpt>
      <trkpt lat="43.9095" lon="5.34475">
        <ele>277.48</ele>
        <time>2013-12-09T09:28:16Z</time>
      </trkpt>
      <trkpt lat="43.90949" lon="5.34464">
        <ele>276.04</ele>
        <time>2013-12-09T09:28:29Z</time>
      </trkpt>
      <trkpt lat="43.90949" lon="5.34448">
        <ele>275.07</ele>
        <time>2013-12-09T09:28:44Z</time>
      </trkpt>
      <trkpt lat="43.90944" lon="5.34438">
        <ele>274.59</ele>
        <time>2013-12-09T09:28:57Z</time>
      </trkpt>
      <trkpt lat="43.90934" lon="5.34435">
        <ele>274.59</ele>
        <time>2013-12-09T09:29:11Z</time>
      </trkpt>
      <trkpt lat="43.90921" lon="5.34431">
        <ele>274.11</ele>
        <time>2013-12-09T09:29:25Z</time>
      </trkpt>
      <trkpt lat="43.90909" lon="5.34431">
        <ele>274.11</ele>
        <time>2013-12-09T09:29:38Z</time>
      </trkpt>
      <trkpt lat="43.90907" lon="5.34432">
        <ele>274.11</ele>
        <time>2013-12-09T09:29:40Z</time>
      </trkpt>
      <trkpt lat="43.90893" lon="5.34444">
        <ele>275.07</ele>
        <time>2013-12-09T09:29:55Z</time>
      </trkpt>
      <trkpt lat="43.90883" lon="5.34456">
        <ele>275.56</ele>
        <time>2013-12-09T09:30:10Z</time>
      </trkpt>
      <trkpt lat="43.90873" lon="5.3447">
        <ele>276.04</ele>
        <time>2013-12-09T09:30:25Z</time>
      </trkpt>
      <trkpt lat="43.90862" lon="5.34482">
        <ele>276.52</ele>
        <time>2013-12-09T09:30:39Z</time>
      </trkpt>
      <trkpt lat="43.90851" lon="5.34496">
        <ele>276.52</ele>
        <time>2013-12-09T09:30:53Z</time>
      </trkpt>
      <trkpt lat="43.90837" lon="5.34511">
        <ele>277</ele>
        <time>2013-12-09T09:31:09Z</time>
      </trkpt>
      <trkpt lat="43.90824" lon="5.34529">
        <ele>277.48</ele>
        <time>2013-12-09T09:31:24Z</time>
      </trkpt>
      <trkpt lat="43.90811" lon="5.34548">
        <ele>277.48</ele>
        <time>2013-12-09T09:31:41Z</time>
      </trkpt>
      <trkpt lat="43.90809" lon="5.3456">
        <ele>277.96</ele>
        <time>2013-12-09T09:31:53Z</time>
      </trkpt>
      <trkpt lat="43.90814" lon="5.3457">
        <ele>278.44</ele>
        <time>2013-12-09T09:32:08Z</time>
      </trkpt>
      <trkpt lat="43.90816" lon="5.34572">
        <ele>278.44</ele>
        <time>2013-12-09T09:32:24Z</time>
      </trkpt>
      <trkpt lat="43.90817" lon="5.34568">
        <ele>278.44</ele>
        <time>2013-12-09T09:32:37Z</time>
      </trkpt>
      <trkpt lat="43.90818" lon="5.34569">
        <ele>278.44</ele>
        <time>2013-12-09T09:32:55Z</time>
      </trkpt>
      <trkpt lat="43.90814" lon="5.34568">
        <ele>278.92</ele>
        <time>2013-12-09T09:33:33Z</time>
      </trkpt>
      <trkpt lat="43.90818" lon="5.34561">
        <ele>278.92</ele>
        <time>2013-12-09T09:34:01Z</time>
      </trkpt>
      <trkpt lat="43.90816" lon="5.3457">
        <ele>279.4</ele>
        <time>2013-12-09T09:34:30Z</time>
      </trkpt>
      <trkpt lat="43.90816" lon="5.34567">
        <ele>279.4</ele>
        <time>2013-12-09T09:34:57Z</time>
      </trkpt>
      <trkpt lat="43.9082" lon="5.34572">
        <ele>279.88</ele>
        <time>2013-12-09T09:35:23Z</time>
      </trkpt>
      <trkpt lat="43.90822" lon="5.34567">
        <ele>279.88</ele>
        <time>2013-12-09T09:35:47Z</time>
      </trkpt>
      <trkpt lat="43.9082" lon="5.34564">
        <ele>280.36</ele>
        <time>2013-12-09T09:36:13Z</time>
      </trkpt>
      <trkpt lat="43.90817" lon="5.3456">
        <ele>280.84</ele>
        <time>2013-12-09T09:36:47Z</time>
      </trkpt>
      <trkpt lat="43.90815" lon="5.3456">
        <ele>280.84</ele>
        <time>2013-12-09T09:37:16Z</time>
      </trkpt>
      <trkpt lat="43.90816" lon="5.34562">
        <ele>280.84</ele>
        <time>2013-12-09T09:37:42Z</time>
      </trkpt>
      <trkpt lat="43.90818" lon="5.34562">
        <ele>281.32</ele>
        <time>2013-12-09T09:38:05Z</time>
      </trkpt>
      <trkpt lat="43.90822" lon="5.3459">
        <ele>281.32</ele>
        <time>2013-12-09T09:38:26Z</time>
      </trkpt>
      <trkpt lat="43.9083" lon="5.34593">
        <ele>281.8</ele>
        <time>2013-12-09T09:38:39Z</time>
      </trkpt>
      <trkpt lat="43.90839" lon="5.34598">
        <ele>281.8</ele>
        <time>2013-12-09T09:38:53Z</time>
      </trkpt>
      <trkpt lat="43.90846" lon="5.34612">
        <ele>281.32</ele>
        <time>2013-12-09T09:39:08Z</time>
      </trkpt>
      <trkpt lat="43.90851" lon="5.34618">
        <ele>281.8</ele>
        <time>2013-12-09T09:39:21Z</time>
      </trkpt>
      <trkpt lat="43.90854" lon="5.34625">
        <ele>282.28</ele>
        <time>2013-12-09T09:39:34Z</time>
      </trkpt>
      <trkpt lat="43.90856" lon="5.34622">
        <ele>282.77</ele>
        <time>2013-12-09T09:39:55Z</time>
      </trkpt>
      <trkpt lat="43.90861" lon="5.34628">
        <ele>282.28</ele>
        <time>2013-12-09T09:40:03Z</time>
      </trkpt>
      <trkpt lat="43.90871" lon="5.34636">
        <ele>282.77</ele>
        <time>2013-12-09T09:40:20Z</time>
      </trkpt>
      <trkpt lat="43.90869" lon="5.34638">
        <ele>282.77</ele>
        <time>2013-12-09T09:40:44Z</time>
      </trkpt>
      <trkpt lat="43.90866" lon="5.34635">
        <ele>283.25</ele>
        <time>2013-12-09T09:41:01Z</time>
      </trkpt>
      <trkpt lat="43.90864" lon="5.34634">
        <ele>283.25</ele>
        <time>2013-12-09T09:41:23Z</time>
      </trkpt>
      <trkpt lat="43.90858" lon="5.34627">
        <ele>283.25</ele>
        <time>2013-12-09T09:41:34Z</time>
      </trkpt>
      <trkpt lat="43.90854" lon="5.34619">
        <ele>282.77</ele>
        <time>2013-12-09T09:41:48Z</time>
      </trkpt>
      <trkpt lat="43.90853" lon="5.34619">
        <ele>282.77</ele>
        <time>2013-12-09T09:41:53Z</time>
      </trkpt>
      <trkpt lat="43.90847" lon="5.34605">
        <ele>282.77</ele>
        <time>2013-12-09T09:42:07Z</time>
      </trkpt>
      <trkpt lat="43.90844" lon="5.34598">
        <ele>282.77</ele>
        <time>2013-12-09T09:42:20Z</time>
      </trkpt>
      <trkpt lat="43.90835" lon="5.34595">
        <ele>282.77</ele>
        <time>2013-12-09T09:42:34Z</time>
      </trkpt>
      <trkpt lat="43.90832" lon="5.3459">
        <ele>283.25</ele>
        <time>2013-12-09T09:42:47Z</time>
      </trkpt>
      <trkpt lat="43.90831" lon="5.3459">
        <ele>282.77</ele>
        <time>2013-12-09T09:42:48Z</time>
      </trkpt>
      <trkpt lat="43.90823" lon="5.3458">
        <ele>282.77</ele>
        <time>2013-12-09T09:43:02Z</time>
      </trkpt>
      <trkpt lat="43.90821" lon="5.34577">
        <ele>282.77</ele>
        <time>2013-12-09T09:43:09Z</time>
      </trkpt>
      <trkpt lat="43.90819" lon="5.34569">
        <ele>282.77</ele>
        <time>2013-12-09T09:43:23Z</time>
      </trkpt>
      <trkpt lat="43.90818" lon="5.34568">
        <ele>282.77</ele>
        <time>2013-12-09T09:43:25Z</time>
      </trkpt>
      <trkpt lat="43.90817" lon="5.34566">
        <ele>282.77</ele>
        <time>2013-12-09T09:43:36Z</time>
      </trkpt>
      <trkpt lat="43.90813" lon="5.34569">
        <ele>282.77</ele>
        <time>2013-12-09T09:43:40Z</time>
      </trkpt>
      <trkpt lat="43.90812" lon="5.34576">
        <ele>283.25</ele>
        <time>2013-12-09T09:43:55Z</time>
      </trkpt>
      <trkpt lat="43.90811" lon="5.34576">
        <ele>283.25</ele>
        <time>2013-12-09T09:44:10Z</time>
      </trkpt>
      <trkpt lat="43.90811" lon="5.34575">
        <ele>283.25</ele>
        <time>2013-12-09T09:44:28Z</time>
      </trkpt>
      <trkpt lat="43.90813" lon="5.34572">
        <ele>283.25</ele>
        <time>2013-12-09T09:44:43Z</time>
      </trkpt>
      <trkpt lat="43.90813" lon="5.34572">
        <ele>283.73</ele>
        <time>2013-12-09T09:45:03Z</time>
      </trkpt>
      <trkpt lat="43.9081" lon="5.34571">
        <ele>283.25</ele>
        <time>2013-12-09T09:45:16Z</time>
      </trkpt>
      <trkpt lat="43.90813" lon="5.34571">
        <ele>283.73</ele>
        <time>2013-12-09T09:45:31Z</time>
      </trkpt>
      <trkpt lat="43.90815" lon="5.34573">
        <ele>283.73</ele>
        <time>2013-12-09T09:45:44Z</time>
      </trkpt>
      <trkpt lat="43.90813" lon="5.34573">
        <ele>283.73</ele>
        <time>2013-12-09T09:45:58Z</time>
      </trkpt>
      <trkpt lat="43.90811" lon="5.34575">
        <ele>283.73</ele>
        <time>2013-12-09T09:46:11Z</time>
      </trkpt>
      <trkpt lat="43.90813" lon="5.34571">
        <ele>284.21</ele>
        <time>2013-12-09T09:46:26Z</time>
      </trkpt>
      <trkpt lat="43.90811" lon="5.34573">
        <ele>284.21</ele>
        <time>2013-12-09T09:46:42Z</time>
      </trkpt>
      <trkpt lat="43.90812" lon="5.34574">
        <ele>284.21</ele>
        <time>2013-12-09T09:47:06Z</time>
      </trkpt>
      <trkpt lat="43.90812" lon="5.34574">
        <ele>284.21</ele>
        <time>2013-12-09T09:47:23Z</time>
      </trkpt>
      <trkpt lat="43.90814" lon="5.34575">
        <ele>284.21</ele>
        <time>2013-12-09T09:47:42Z</time>
      </trkpt>
      <trkpt lat="43.90813" lon="5.34575">
        <ele>284.21</ele>
        <time>2013-12-09T09:47:57Z</time>
      </trkpt>
      <trkpt lat="43.90814" lon="5.34573">
        <ele>284.69</ele>
        <time>2013-12-09T09:48:22Z</time>
      </trkpt>
      <trkpt lat="43.90815" lon="5.34568">
        <ele>284.21</ele>
        <time>2013-12-09T09:48:31Z</time>
      </trkpt>
      <trkpt lat="43.90817" lon="5.34563">
        <ele>284.21</ele>
        <time>2013-12-09T09:48:35Z</time>
      </trkpt>
      <trkpt lat="43.90821" lon="5.34553">
        <ele>284.69</ele>
        <time>2013-12-09T09:48:46Z</time>
      </trkpt>
      <trkpt lat="43.90821" lon="5.34549">
        <ele>286.13</ele>
        <time>2013-12-09T09:48:58Z</time>
      </trkpt>
      <trkpt lat="43.90823" lon="5.34551">
        <ele>286.13</ele>
        <time>2013-12-09T09:49:15Z</time>
      </trkpt>
      <trkpt lat="43.90819" lon="5.34547">
        <ele>285.65</ele>
        <time>2013-12-09T09:49:40Z</time>
      </trkpt>
      <trkpt lat="43.90814" lon="5.34548">
        <ele>284.21</ele>
        <time>2013-12-09T09:49:47Z</time>
      </trkpt>
      <trkpt lat="43.90812" lon="5.34564">
        <ele>284.21</ele>
        <time>2013-12-09T09:50:00Z</time>
      </trkpt>
      <trkpt lat="43.90814" lon="5.3457">
        <ele>284.21</ele>
        <time>2013-12-09T09:50:15Z</time>
      </trkpt>
      <trkpt lat="43.90816" lon="5.34571">
        <ele>284.69</ele>
        <time>2013-12-09T09:50:37Z</time>
      </trkpt>
      <trkpt lat="43.90815" lon="5.34571">
        <ele>284.69</ele>
        <time>2013-12-09T09:51:01Z</time>
      </trkpt>
      <trkpt lat="43.90817" lon="5.34569">
        <ele>284.69</ele>
        <time>2013-12-09T09:51:25Z</time>
      </trkpt>
      <trkpt lat="43.90813" lon="5.34571">
        <ele>284.69</ele>
        <time>2013-12-09T09:51:41Z</time>
      </trkpt>
      <trkpt lat="43.90812" lon="5.34572">
        <ele>284.69</ele>
        <time>2013-12-09T09:52:05Z</time>
      </trkpt>
      <trkpt lat="43.90814" lon="5.34572">
        <ele>284.69</ele>
        <time>2013-12-09T09:52:29Z</time>
      </trkpt>
      <trkpt lat="43.90814" lon="5.3457">
        <ele>284.69</ele>
        <time>2013-12-09T09:52:43Z</time>
      </trkpt>
      <trkpt lat="43.90812" lon="5.34571">
        <ele>285.17</ele>
        <time>2013-12-09T09:52:58Z</time>
      </trkpt>
      <trkpt lat="43.90813" lon="5.34574">
        <ele>284.69</ele>
        <time>2013-12-09T09:53:17Z</time>
      </trkpt>
      <trkpt lat="43.90812" lon="5.34575">
        <ele>285.17</ele>
        <time>2013-12-09T09:53:32Z</time>
      </trkpt>
      <trkpt lat="43.90813" lon="5.34572">
        <ele>285.17</ele>
        <time>2013-12-09T09:53:49Z</time>
      </trkpt>
      <trkpt lat="43.90813" lon="5.3457">
        <ele>285.17</ele>
        <time>2013-12-09T09:54:07Z</time>
      </trkpt>
      <trkpt lat="43.90813" lon="5.34567">
        <ele>285.17</ele>
        <time>2013-12-09T09:54:22Z</time>
      </trkpt>
      <trkpt lat="43.90811" lon="5.34568">
        <ele>286.13</ele>
        <time>2013-12-09T09:54:48Z</time>
      </trkpt>
      <trkpt lat="43.90814" lon="5.34567">
        <ele>285.65</ele>
        <time>2013-12-09T09:55:15Z</time>
      </trkpt>
      <trkpt lat="43.90812" lon="5.3457">
        <ele>285.65</ele>
        <time>2013-12-09T09:55:29Z</time>
      </trkpt>
      <trkpt lat="43.90807" lon="5.34569">
        <ele>285.65</ele>
        <time>2013-12-09T09:55:46Z</time>
      </trkpt>
      <trkpt lat="43.90808" lon="5.34573">
        <ele>285.65</ele>
        <time>2013-12-09T09:56:01Z</time>
      </trkpt>
      <trkpt lat="43.90802" lon="5.34577">
        <ele>285.65</ele>
        <time>2013-12-09T09:56:14Z</time>
      </trkpt>
      <trkpt lat="43.90797" lon="5.34581">
        <ele>285.65</ele>
        <time>2013-12-09T09:56:21Z</time>
      </trkpt>
      <trkpt lat="43.90792" lon="5.34586">
        <ele>286.13</ele>
        <time>2013-12-09T09:56:27Z</time>
      </trkpt>
      <trkpt lat="43.90785" lon="5.34593">
        <ele>286.13</ele>
        <time>2013-12-09T09:56:35Z</time>
      </trkpt>
      <trkpt lat="43.90783" lon="5.34593">
        <ele>286.13</ele>
        <time>2013-12-09T09:56:37Z</time>
      </trkpt>
      <trkpt lat="43.9078" lon="5.34582">
        <ele>286.13</ele>
        <time>2013-12-09T09:56:50Z</time>
      </trkpt>
      <trkpt lat="43.9078" lon="5.34583">
        <ele>286.61</ele>
        <time>2013-12-09T09:57:04Z</time>
      </trkpt>
      <trkpt lat="43.90779" lon="5.34586">
        <ele>286.61</ele>
        <time>2013-12-09T09:57:18Z</time>
      </trkpt>
      <trkpt lat="43.90776" lon="5.34586">
        <ele>286.61</ele>
        <time>2013-12-09T09:57:36Z</time>
      </trkpt>
      <trkpt lat="43.90765" lon="5.34597">
        <ele>287.09</ele>
        <time>2013-12-09T09:57:50Z</time>
      </trkpt>
      <trkpt lat="43.90759" lon="5.34604">
        <ele>287.57</ele>
        <time>2013-12-09T09:58:02Z</time>
      </trkpt>
      <trkpt lat="43.90758" lon="5.34608">
        <ele>287.09</ele>
        <time>2013-12-09T09:58:15Z</time>
      </trkpt>
      <trkpt lat="43.90757" lon="5.34615">
        <ele>287.57</ele>
        <time>2013-12-09T09:58:30Z</time>
      </trkpt>
      <trkpt lat="43.9075" lon="5.34617">
        <ele>287.09</ele>
        <time>2013-12-09T09:58:38Z</time>
      </trkpt>
      <trkpt lat="43.90744" lon="5.34625">
        <ele>287.57</ele>
        <time>2013-12-09T09:58:46Z</time>
      </trkpt>
      <trkpt lat="43.9073" lon="5.34644">
        <ele>288.05</ele>
        <time>2013-12-09T09:59:04Z</time>
      </trkpt>
      <trkpt lat="43.90722" lon="5.34654">
        <ele>288.53</ele>
        <time>2013-12-09T09:59:16Z</time>
      </trkpt>
      <trkpt lat="43.9071" lon="5.34674">
        <ele>288.53</ele>
        <time>2013-12-09T09:59:33Z</time>
      </trkpt>
      <trkpt lat="43.90705" lon="5.34681">
        <ele>288.53</ele>
        <time>2013-12-09T09:59:38Z</time>
      </trkpt>
      <trkpt lat="43.90688" lon="5.34698">
        <ele>289.01</ele>
        <time>2013-12-09T09:59:57Z</time>
      </trkpt>
      <trkpt lat="43.90676" lon="5.34708">
        <ele>289.01</ele>
        <time>2013-12-09T10:00:11Z</time>
      </trkpt>
      <trkpt lat="43.90662" lon="5.34715">
        <ele>289.49</ele>
        <time>2013-12-09T10:00:26Z</time>
      </trkpt>
      <trkpt lat="43.90648" lon="5.34714">
        <ele>289.49</ele>
        <time>2013-12-09T10:00:39Z</time>
      </trkpt>
      <trkpt lat="43.9063" lon="5.34719">
        <ele>289.97</ele>
        <time>2013-12-09T10:00:55Z</time>
      </trkpt>
      <trkpt lat="43.90621" lon="5.34719">
        <ele>291.42</ele>
        <time>2013-12-09T10:01:03Z</time>
      </trkpt>
      <trkpt lat="43.90606" lon="5.34727">
        <ele>290.46</ele>
        <time>2013-12-09T10:01:19Z</time>
      </trkpt>
      <trkpt lat="43.90598" lon="5.34739">
        <ele>289.97</ele>
        <time>2013-12-09T10:01:32Z</time>
      </trkpt>
      <trkpt lat="43.90593" lon="5.34741">
        <ele>290.46</ele>
        <time>2013-12-09T10:01:38Z</time>
      </trkpt>
      <trkpt lat="43.90588" lon="5.34757">
        <ele>290.46</ele>
        <time>2013-12-09T10:01:51Z</time>
      </trkpt>
      <trkpt lat="43.90586" lon="5.34775">
        <ele>291.9</ele>
        <time>2013-12-09T10:02:08Z</time>
      </trkpt>
      <trkpt lat="43.90592" lon="5.34792">
        <ele>293.34</ele>
        <time>2013-12-09T10:02:23Z</time>
      </trkpt>
      <trkpt lat="43.90599" lon="5.34803">
        <ele>296.22</ele>
        <time>2013-12-09T10:02:39Z</time>
      </trkpt>
      <trkpt lat="43.90605" lon="5.34816">
        <ele>296.7</ele>
        <time>2013-12-09T10:02:55Z</time>
      </trkpt>
      <trkpt lat="43.90607" lon="5.34828">
        <ele>297.67</ele>
        <time>2013-12-09T10:03:09Z</time>
      </trkpt>
      <trkpt lat="43.90604" lon="5.34836">
        <ele>299.59</ele>
        <time>2013-12-09T10:03:19Z</time>
      </trkpt>
      <trkpt lat="43.90605" lon="5.34845">
        <ele>300.55</ele>
        <time>2013-12-09T10:03:32Z</time>
      </trkpt>
      <trkpt lat="43.90612" lon="5.34853">
        <ele>301.51</ele>
        <time>2013-12-09T10:03:47Z</time>
      </trkpt>
      <trkpt lat="43.90617" lon="5.34858">
        <ele>303.43</ele>
        <time>2013-12-09T10:03:59Z</time>
      </trkpt>
      <trkpt lat="43.90617" lon="5.34863">
        <ele>303.91</ele>
        <time>2013-12-09T10:04:12Z</time>
      </trkpt>
      <trkpt lat="43.90622" lon="5.34864">
        <ele>304.39</ele>
        <time>2013-12-09T10:04:28Z</time>
      </trkpt>
      <trkpt lat="43.90632" lon="5.34854">
        <ele>305.36</ele>
        <time>2013-12-09T10:04:41Z</time>
      </trkpt>
      <trkpt lat="43.90642" lon="5.34847">
        <ele>305.36</ele>
        <time>2013-12-09T10:04:55Z</time>
      </trkpt>
      <trkpt lat="43.90652" lon="5.34841">
        <ele>301.51</ele>
        <time>2013-12-09T10:05:10Z</time>
      </trkpt>
      <trkpt lat="43.9066" lon="5.34833">
        <ele>301.51</ele>
        <time>2013-12-09T10:05:22Z</time>
      </trkpt>
      <trkpt lat="43.90668" lon="5.34831">
        <ele>300.55</ele>
        <time>2013-12-09T10:05:37Z</time>
      </trkpt>
      <trkpt lat="43.90678" lon="5.34829">
        <ele>301.03</ele>
        <time>2013-12-09T10:05:50Z</time>
      </trkpt>
      <trkpt lat="43.90682" lon="5.34827">
        <ele>300.07</ele>
        <time>2013-12-09T10:06:02Z</time>
      </trkpt>
      <trkpt lat="43.90686" lon="5.34828">
        <ele>300.55</ele>
        <time>2013-12-09T10:06:17Z</time>
      </trkpt>
      <trkpt lat="43.90691" lon="5.34823">
        <ele>301.03</ele>
        <time>2013-12-09T10:06:33Z</time>
      </trkpt>
      <trkpt lat="43.90694" lon="5.34824">
        <ele>301.03</ele>
        <time>2013-12-09T10:06:51Z</time>
      </trkpt>
      <trkpt lat="43.90697" lon="5.34827">
        <ele>301.03</ele>
        <time>2013-12-09T10:07:22Z</time>
      </trkpt>
      <trkpt lat="43.90706" lon="5.34828">
        <ele>301.03</ele>
        <time>2013-12-09T10:07:40Z</time>
      </trkpt>
      <trkpt lat="43.90714" lon="5.34836">
        <ele>302.95</ele>
        <time>2013-12-09T10:07:55Z</time>
      </trkpt>
      <trkpt lat="43.90721" lon="5.34838">
        <ele>303.91</ele>
        <time>2013-12-09T10:08:08Z</time>
      </trkpt>
      <trkpt lat="43.90723" lon="5.34853">
        <ele>303.91</ele>
        <time>2013-12-09T10:08:22Z</time>
      </trkpt>
      <trkpt lat="43.90733" lon="5.3486">
        <ele>303.91</ele>
        <time>2013-12-09T10:08:36Z</time>
      </trkpt>
      <trkpt lat="43.9074" lon="5.34855">
        <ele>303.43</ele>
        <time>2013-12-09T10:08:45Z</time>
      </trkpt>
      <trkpt lat="43.9075" lon="5.34845">
        <ele>303.91</ele>
        <time>2013-12-09T10:08:57Z</time>
      </trkpt>
      <trkpt lat="43.90765" lon="5.34835">
        <ele>303.91</ele>
        <time>2013-12-09T10:09:11Z</time>
      </trkpt>
      <trkpt lat="43.90766" lon="5.34835">
        <ele>303.91</ele>
        <time>2013-12-09T10:09:13Z</time>
      </trkpt>
      <trkpt lat="43.90779" lon="5.34837">
        <ele>305.36</ele>
        <time>2013-12-09T10:09:26Z</time>
      </trkpt>
      <trkpt lat="43.90795" lon="5.34834">
        <ele>305.84</ele>
        <time>2013-12-09T10:09:43Z</time>
      </trkpt>
      <trkpt lat="43.9081" lon="5.3482">
        <ele>306.32</ele>
        <time>2013-12-09T10:10:02Z</time>
      </trkpt>
      <trkpt lat="43.90825" lon="5.34824">
        <ele>307.76</ele>
        <time>2013-12-09T10:10:18Z</time>
      </trkpt>
      <trkpt lat="43.90837" lon="5.3483">
        <ele>308.72</ele>
        <time>2013-12-09T10:10:33Z</time>
      </trkpt>
      <trkpt lat="43.90848" lon="5.34834">
        <ele>308.72</ele>
        <time>2013-12-09T10:10:47Z</time>
      </trkpt>
      <trkpt lat="43.90856" lon="5.34843">
        <ele>309.2</ele>
        <time>2013-12-09T10:11:01Z</time>
      </trkpt>
      <trkpt lat="43.90863" lon="5.34846">
        <ele>309.68</ele>
        <time>2013-12-09T10:11:13Z</time>
      </trkpt>
      <trkpt lat="43.9087" lon="5.34849">
        <ele>309.2</ele>
        <time>2013-12-09T10:11:29Z</time>
      </trkpt>
      <trkpt lat="43.90876" lon="5.34861">
        <ele>305.84</ele>
        <time>2013-12-09T10:11:47Z</time>
      </trkpt>
      <trkpt lat="43.90874" lon="5.34872">
        <ele>303.91</ele>
        <time>2013-12-09T10:12:06Z</time>
      </trkpt>
      <trkpt lat="43.90876" lon="5.34886">
        <ele>302.47</ele>
        <time>2013-12-09T10:12:22Z</time>
      </trkpt>
      <trkpt lat="43.90879" lon="5.34904">
        <ele>303.43</ele>
        <time>2013-12-09T10:12:38Z</time>
      </trkpt>
      <trkpt lat="43.90879" lon="5.34923">
        <ele>302.95</ele>
        <time>2013-12-09T10:12:54Z</time>
      </trkpt>
      <trkpt lat="43.90884" lon="5.34936">
        <ele>301.99</ele>
        <time>2013-12-09T10:13:09Z</time>
      </trkpt>
      <trkpt lat="43.90894" lon="5.34948">
        <ele>301.99</ele>
        <time>2013-12-09T10:13:22Z</time>
      </trkpt>
      <trkpt lat="43.90902" lon="5.34956">
        <ele>301.51</ele>
        <time>2013-12-09T10:13:38Z</time>
      </trkpt>
      <trkpt lat="43.90909" lon="5.34966">
        <ele>299.59</ele>
        <time>2013-12-09T10:13:54Z</time>
      </trkpt>
      <trkpt lat="43.90917" lon="5.34976">
        <ele>300.55</ele>
        <time>2013-12-09T10:14:07Z</time>
      </trkpt>
      <trkpt lat="43.90916" lon="5.34982">
        <ele>301.03</ele>
        <time>2013-12-09T10:14:22Z</time>
      </trkpt>
      <trkpt lat="43.90925" lon="5.34994">
        <ele>302.95</ele>
        <time>2013-12-09T10:14:38Z</time>
      </trkpt>
      <trkpt lat="43.90925" lon="5.35007">
        <ele>304.88</ele>
        <time>2013-12-09T10:14:53Z</time>
      </trkpt>
      <trkpt lat="43.90928" lon="5.35015">
        <ele>306.8</ele>
        <time>2013-12-09T10:15:08Z</time>
      </trkpt>
      <trkpt lat="43.90928" lon="5.35027">
        <ele>304.39</ele>
        <time>2013-12-09T10:15:24Z</time>
      </trkpt>
      <trkpt lat="43.90934" lon="5.35042">
        <ele>303.91</ele>
        <time>2013-12-09T10:15:40Z</time>
      </trkpt>
      <trkpt lat="43.90938" lon="5.3505">
        <ele>301.99</ele>
        <time>2013-12-09T10:15:55Z</time>
      </trkpt>
      <trkpt lat="43.90939" lon="5.3506">
        <ele>301.99</ele>
        <time>2013-12-09T10:16:06Z</time>
      </trkpt>
      <trkpt lat="43.90931" lon="5.35071">
        <ele>302.47</ele>
        <time>2013-12-09T10:16:22Z</time>
      </trkpt>
      <trkpt lat="43.90924" lon="5.35081">
        <ele>301.99</ele>
        <time>2013-12-09T10:16:35Z</time>
      </trkpt>
      <trkpt lat="43.90925" lon="5.35096">
        <ele>300.07</ele>
        <time>2013-12-09T10:16:51Z</time>
      </trkpt>
      <trkpt lat="43.90927" lon="5.35104">
        <ele>300.07</ele>
        <time>2013-12-09T10:17:08Z</time>
      </trkpt>
      <trkpt lat="43.90926" lon="5.35106">
        <ele>300.55</ele>
        <time>2013-12-09T10:17:20Z</time>
      </trkpt>
      <trkpt lat="43.90928" lon="5.35108">
        <ele>300.55</ele>
        <time>2013-12-09T10:17:36Z</time>
      </trkpt>
      <trkpt lat="43.90919" lon="5.3511">
        <ele>300.55</ele>
        <time>2013-12-09T10:17:52Z</time>
      </trkpt>
      <trkpt lat="43.90915" lon="5.35105">
        <ele>300.07</ele>
        <time>2013-12-09T10:17:57Z</time>
      </trkpt>
      <trkpt lat="43.90907" lon="5.35096">
        <ele>300.07</ele>
        <time>2013-12-09T10:18:10Z</time>
      </trkpt>
      <trkpt lat="43.90899" lon="5.35092">
        <ele>299.59</ele>
        <time>2013-12-09T10:18:16Z</time>
      </trkpt>
      <trkpt lat="43.90883" lon="5.35085">
        <ele>298.63</ele>
        <time>2013-12-09T10:18:31Z</time>
      </trkpt>
      <trkpt lat="43.90865" lon="5.35081">
        <ele>297.67</ele>
        <time>2013-12-09T10:18:48Z</time>
      </trkpt>
      <trkpt lat="43.90856" lon="5.35084">
        <ele>296.7</ele>
        <time>2013-12-09T10:18:57Z</time>
      </trkpt>
      <trkpt lat="43.90845" lon="5.351">
        <ele>295.74</ele>
        <time>2013-12-09T10:19:12Z</time>
      </trkpt>
      <trkpt lat="43.90848" lon="5.35117">
        <ele>295.26</ele>
        <time>2013-12-09T10:19:26Z</time>
      </trkpt>
      <trkpt lat="43.90854" lon="5.35128">
        <ele>296.22</ele>
        <time>2013-12-09T10:19:37Z</time>
      </trkpt>
      <trkpt lat="43.90865" lon="5.35137">
        <ele>295.74</ele>
        <time>2013-12-09T10:19:51Z</time>
      </trkpt>
      <trkpt lat="43.9087" lon="5.35144">
        <ele>295.74</ele>
        <time>2013-12-09T10:20:03Z</time>
      </trkpt>
      <trkpt lat="43.90872" lon="5.35148">
        <ele>295.74</ele>
        <time>2013-12-09T10:20:06Z</time>
      </trkpt>
      <trkpt lat="43.9088" lon="5.35162">
        <ele>297.18</ele>
        <time>2013-12-09T10:20:17Z</time>
      </trkpt>
      <trkpt lat="43.90886" lon="5.35183">
        <ele>299.11</ele>
        <time>2013-12-09T10:20:33Z</time>
      </trkpt>
      <trkpt lat="43.90891" lon="5.352">
        <ele>297.67</ele>
        <time>2013-12-09T10:20:47Z</time>
      </trkpt>
      <trkpt lat="43.90897" lon="5.35206">
        <ele>296.22</ele>
        <time>2013-12-09T10:20:56Z</time>
      </trkpt>
      <trkpt lat="43.90911" lon="5.3521">
        <ele>294.78</ele>
        <time>2013-12-09T10:21:13Z</time>
      </trkpt>
      <trkpt lat="43.90917" lon="5.352">
        <ele>294.78</ele>
        <time>2013-12-09T10:21:26Z</time>
      </trkpt>
      <trkpt lat="43.90923" lon="5.35183">
        <ele>293.82</ele>
        <time>2013-12-09T10:21:43Z</time>
      </trkpt>
      <trkpt lat="43.90941" lon="5.35166">
        <ele>290.94</ele>
        <time>2013-12-09T10:22:16Z</time>
      </trkpt>
      <trkpt lat="43.9091" lon="5.352">
        <ele>294.3</ele>
        <time>2013-12-09T10:25:07Z</time>
      </trkpt>
      <trkpt lat="43.90912" lon="5.35197">
        <ele>294.3</ele>
        <time>2013-12-09T10:25:11Z</time>
      </trkpt>
      <trkpt lat="43.90914" lon="5.35201">
        <ele>294.78</ele>
        <time>2013-12-09T10:25:15Z</time>
      </trkpt>
      <trkpt lat="43.90916" lon="5.35199">
        <ele>294.78</ele>
        <time>2013-12-09T10:25:28Z</time>
      </trkpt>
      <trkpt lat="43.90917" lon="5.35202">
        <ele>294.78</ele>
        <time>2013-12-09T10:25:41Z</time>
      </trkpt>
      <trkpt lat="43.90915" lon="5.35201">
        <ele>294.78</ele>
        <time>2013-12-09T10:26:07Z</time>
      </trkpt>
      <trkpt lat="43.90911" lon="5.35218">
        <ele>294.3</ele>
        <time>2013-12-09T10:26:23Z</time>
      </trkpt>
      <trkpt lat="43.90914" lon="5.35232">
        <ele>293.82</ele>
        <time>2013-12-09T10:26:35Z</time>
      </trkpt>
      <trkpt lat="43.9092" lon="5.35251">
        <ele>293.34</ele>
        <time>2013-12-09T10:26:52Z</time>
      </trkpt>
      <trkpt lat="43.9092" lon="5.35266">
        <ele>293.34</ele>
        <time>2013-12-09T10:27:06Z</time>
      </trkpt>
      <trkpt lat="43.9092" lon="5.35277">
        <ele>292.86</ele>
        <time>2013-12-09T10:27:20Z</time>
      </trkpt>
      <trkpt lat="43.90917" lon="5.3528">
        <ele>292.38</ele>
        <time>2013-12-09T10:27:36Z</time>
      </trkpt>
      <trkpt lat="43.90907" lon="5.35301">
        <ele>291.9</ele>
        <time>2013-12-09T10:27:55Z</time>
      </trkpt>
      <trkpt lat="43.90899" lon="5.35315">
        <ele>291.42</ele>
        <time>2013-12-09T10:28:08Z</time>
      </trkpt>
      <trkpt lat="43.90892" lon="5.3533">
        <ele>290.94</ele>
        <time>2013-12-09T10:28:19Z</time>
      </trkpt>
      <trkpt lat="43.90882" lon="5.35348">
        <ele>290.46</ele>
        <time>2013-12-09T10:28:35Z</time>
      </trkpt>
      <trkpt lat="43.90872" lon="5.35366">
        <ele>289.97</ele>
        <time>2013-12-09T10:28:49Z</time>
      </trkpt>
      <trkpt lat="43.90867" lon="5.35378">
        <ele>289.97</ele>
        <time>2013-12-09T10:28:59Z</time>
      </trkpt>
      <trkpt lat="43.90858" lon="5.35395">
        <ele>289.97</ele>
        <time>2013-12-09T10:29:12Z</time>
      </trkpt>
      <trkpt lat="43.90856" lon="5.35401">
        <ele>289.97</ele>
        <time>2013-12-09T10:29:16Z</time>
      </trkpt>
      <trkpt lat="43.90854" lon="5.35406">
        <ele>290.46</ele>
        <time>2013-12-09T10:29:20Z</time>
      </trkpt>
      <trkpt lat="43.90847" lon="5.35424">
        <ele>290.94</ele>
        <time>2013-12-09T10:29:34Z</time>
      </trkpt>
      <trkpt lat="43.90842" lon="5.35445">
        <ele>292.38</ele>
        <time>2013-12-09T10:29:50Z</time>
      </trkpt>
      <trkpt lat="43.90841" lon="5.35453">
        <ele>293.34</ele>
        <time>2013-12-09T10:29:57Z</time>
      </trkpt>
      <trkpt lat="43.90841" lon="5.35458">
        <ele>293.34</ele>
        <time>2013-12-09T10:30:01Z</time>
      </trkpt>
      <trkpt lat="43.90843" lon="5.35478">
        <ele>294.3</ele>
        <time>2013-12-09T10:30:17Z</time>
      </trkpt>
      <trkpt lat="43.90846" lon="5.35501">
        <ele>294.3</ele>
        <time>2013-12-09T10:30:34Z</time>
      </trkpt>
      <trkpt lat="43.90852" lon="5.35519">
        <ele>293.82</ele>
        <time>2013-12-09T10:30:47Z</time>
      </trkpt>
      <trkpt lat="43.90856" lon="5.35542">
        <ele>293.82</ele>
        <time>2013-12-09T10:31:03Z</time>
      </trkpt>
      <trkpt lat="43.90857" lon="5.35546">
        <ele>293.82</ele>
        <time>2013-12-09T10:31:06Z</time>
      </trkpt>
      <trkpt lat="43.90858" lon="5.35549">
        <ele>293.34</ele>
        <time>2013-12-09T10:31:08Z</time>
      </trkpt>
      <trkpt lat="43.90863" lon="5.35571">
        <ele>293.34</ele>
        <time>2013-12-09T10:31:23Z</time>
      </trkpt>
      <trkpt lat="43.90865" lon="5.35586">
        <ele>293.34</ele>
        <time>2013-12-09T10:31:32Z</time>
      </trkpt>
      <trkpt lat="43.90866" lon="5.35595">
        <ele>293.34</ele>
        <time>2013-12-09T10:31:39Z</time>
      </trkpt>
      <trkpt lat="43.90867" lon="5.35598">
        <ele>293.34</ele>
        <time>2013-12-09T10:31:41Z</time>
      </trkpt>
      <trkpt lat="43.9087" lon="5.35625">
        <ele>293.34</ele>
        <time>2013-12-09T10:32:00Z</time>
      </trkpt>
      <trkpt lat="43.90875" lon="5.35654">
        <ele>293.34</ele>
        <time>2013-12-09T10:32:19Z</time>
      </trkpt>
      <trkpt lat="43.90874" lon="5.35672">
        <ele>293.34</ele>
        <time>2013-12-09T10:32:32Z</time>
      </trkpt>
      <trkpt lat="43.90874" lon="5.35674">
        <ele>293.34</ele>
        <time>2013-12-09T10:32:34Z</time>
      </trkpt>
      <trkpt lat="43.90866" lon="5.35681">
        <ele>293.34</ele>
        <time>2013-12-09T10:32:42Z</time>
      </trkpt>
      <trkpt lat="43.90862" lon="5.35683">
        <ele>292.86</ele>
        <time>2013-12-09T10:32:46Z</time>
      </trkpt>
      <trkpt lat="43.90848" lon="5.35692">
        <ele>291.9</ele>
        <time>2013-12-09T10:33:01Z</time>
      </trkpt>
      <trkpt lat="43.90836" lon="5.35697">
        <ele>291.42</ele>
        <time>2013-12-09T10:33:13Z</time>
      </trkpt>
      <trkpt lat="43.90827" lon="5.357">
        <ele>290.94</ele>
        <time>2013-12-09T10:33:22Z</time>
      </trkpt>
      <trkpt lat="43.90812" lon="5.35709">
        <ele>290.46</ele>
        <time>2013-12-09T10:33:37Z</time>
      </trkpt>
      <trkpt lat="43.90808" lon="5.3571">
        <ele>290.46</ele>
        <time>2013-12-09T10:33:40Z</time>
      </trkpt>
      <trkpt lat="43.90797" lon="5.35716">
        <ele>289.97</ele>
        <time>2013-12-09T10:33:52Z</time>
      </trkpt>
      <trkpt lat="43.90788" lon="5.35721">
        <ele>289.97</ele>
        <time>2013-12-09T10:34:04Z</time>
      </trkpt>
      <trkpt lat="43.90777" lon="5.35726">
        <ele>289.49</ele>
        <time>2013-12-09T10:34:17Z</time>
      </trkpt>
      <trkpt lat="43.90763" lon="5.35732">
        <ele>288.53</ele>
        <time>2013-12-09T10:34:32Z</time>
      </trkpt>
      <trkpt lat="43.90755" lon="5.35735">
        <ele>288.53</ele>
        <time>2013-12-09T10:34:44Z</time>
      </trkpt>
      <trkpt lat="43.90748" lon="5.35734">
        <ele>288.53</ele>
        <time>2013-12-09T10:34:53Z</time>
      </trkpt>
      <trkpt lat="43.90743" lon="5.35709">
        <ele>288.05</ele>
        <time>2013-12-09T10:35:12Z</time>
      </trkpt>
      <trkpt lat="43.90741" lon="5.35704">
        <ele>287.57</ele>
        <time>2013-12-09T10:35:25Z</time>
      </trkpt>
      <trkpt lat="43.9074" lon="5.35703">
        <ele>287.57</ele>
        <time>2013-12-09T10:35:41Z</time>
      </trkpt>
      <trkpt lat="43.90737" lon="5.35704">
        <ele>287.57</ele>
        <time>2013-12-09T10:36:01Z</time>
      </trkpt>
      <trkpt lat="43.90734" lon="5.35705">
        <ele>287.57</ele>
        <time>2013-12-09T10:36:14Z</time>
      </trkpt>
      <trkpt lat="43.90736" lon="5.35704">
        <ele>287.09</ele>
        <time>2013-12-09T10:36:32Z</time>
      </trkpt>
      <trkpt lat="43.90741" lon="5.357">
        <ele>287.57</ele>
        <time>2013-12-09T10:36:47Z</time>
      </trkpt>
      <trkpt lat="43.90744" lon="5.35702">
        <ele>288.05</ele>
        <time>2013-12-09T10:37:01Z</time>
      </trkpt>
      <trkpt lat="43.90744" lon="5.35703">
        <ele>288.05</ele>
        <time>2013-12-09T10:37:20Z</time>
      </trkpt>
      <trkpt lat="43.90744" lon="5.35706">
        <ele>287.57</ele>
        <time>2013-12-09T10:37:36Z</time>
      </trkpt>
      <trkpt lat="43.90745" lon="5.35708">
        <ele>287.57</ele>
        <time>2013-12-09T10:37:38Z</time>
      </trkpt>
      <trkpt lat="43.9075" lon="5.35721">
        <ele>288.05</ele>
        <time>2013-12-09T10:37:52Z</time>
      </trkpt>
      <trkpt lat="43.9075" lon="5.35729">
        <ele>288.05</ele>
        <time>2013-12-09T10:38:04Z</time>
      </trkpt>
      <trkpt lat="43.90749" lon="5.35734">
        <ele>288.05</ele>
        <time>2013-12-09T10:38:07Z</time>
      </trkpt>
      <trkpt lat="43.90734" lon="5.35746">
        <ele>288.05</ele>
        <time>2013-12-09T10:38:23Z</time>
      </trkpt>
      <trkpt lat="43.90734" lon="5.35744">
        <ele>288.05</ele>
        <time>2013-12-09T10:38:40Z</time>
      </trkpt>
      <trkpt lat="43.90731" lon="5.35748">
        <ele>288.05</ele>
        <time>2013-12-09T10:38:47Z</time>
      </trkpt>
      <trkpt lat="43.90728" lon="5.35751">
        <ele>287.57</ele>
        <time>2013-12-09T10:38:51Z</time>
      </trkpt>
      <trkpt lat="43.9071" lon="5.35758">
        <ele>287.57</ele>
        <time>2013-12-09T10:39:08Z</time>
      </trkpt>
      <trkpt lat="43.90704" lon="5.35761">
        <ele>287.57</ele>
        <time>2013-12-09T10:39:16Z</time>
      </trkpt>
      <trkpt lat="43.90701" lon="5.35764">
        <ele>288.05</ele>
        <time>2013-12-09T10:39:19Z</time>
      </trkpt>
      <trkpt lat="43.90701" lon="5.35772">
        <ele>288.53</ele>
        <time>2013-12-09T10:39:25Z</time>
      </trkpt>
      <trkpt lat="43.9071" lon="5.35792">
        <ele>289.97</ele>
        <time>2013-12-09T10:39:42Z</time>
      </trkpt>
      <trkpt lat="43.90719" lon="5.35812">
        <ele>291.42</ele>
        <time>2013-12-09T10:39:58Z</time>
      </trkpt>
      <trkpt lat="43.90725" lon="5.35826">
        <ele>292.38</ele>
        <time>2013-12-09T10:40:11Z</time>
      </trkpt>
      <trkpt lat="43.90732" lon="5.3584">
        <ele>293.34</ele>
        <time>2013-12-09T10:40:23Z</time>
      </trkpt>
      <trkpt lat="43.9074" lon="5.3586">
        <ele>294.78</ele>
        <time>2013-12-09T10:40:40Z</time>
      </trkpt>
      <trkpt lat="43.90746" lon="5.35875">
        <ele>296.22</ele>
        <time>2013-12-09T10:40:54Z</time>
      </trkpt>
      <trkpt lat="43.9075" lon="5.3589">
        <ele>298.15</ele>
        <time>2013-12-09T10:41:06Z</time>
      </trkpt>
      <trkpt lat="43.90757" lon="5.3591">
        <ele>298.15</ele>
        <time>2013-12-09T10:41:22Z</time>
      </trkpt>
      <trkpt lat="43.90761" lon="5.35918">
        <ele>298.63</ele>
        <time>2013-12-09T10:41:36Z</time>
      </trkpt>
      <trkpt lat="43.90764" lon="5.35919">
        <ele>298.63</ele>
        <time>2013-12-09T10:41:56Z</time>
      </trkpt>
      <trkpt lat="43.90773" lon="5.35925">
        <ele>299.11</ele>
        <time>2013-12-09T10:42:10Z</time>
      </trkpt>
      <trkpt lat="43.90783" lon="5.35937">
        <ele>300.55</ele>
        <time>2013-12-09T10:42:25Z</time>
      </trkpt>
      <trkpt lat="43.90794" lon="5.35948">
        <ele>301.51</ele>
        <time>2013-12-09T10:42:39Z</time>
      </trkpt>
      <trkpt lat="43.90805" lon="5.35958">
        <ele>302.95</ele>
        <time>2013-12-09T10:42:53Z</time>
      </trkpt>
      <trkpt lat="43.90816" lon="5.35969">
        <ele>304.88</ele>
        <time>2013-12-09T10:43:09Z</time>
      </trkpt>
      <trkpt lat="43.90828" lon="5.35979">
        <ele>306.8</ele>
        <time>2013-12-09T10:43:25Z</time>
      </trkpt>
      <trkpt lat="43.9084" lon="5.35988">
        <ele>307.76</ele>
        <time>2013-12-09T10:43:40Z</time>
      </trkpt>
      <trkpt lat="43.90849" lon="5.35993">
        <ele>309.2</ele>
        <time>2013-12-09T10:43:51Z</time>
      </trkpt>
      <trkpt lat="43.9086" lon="5.36">
        <ele>310.64</ele>
        <time>2013-12-09T10:44:06Z</time>
      </trkpt>
      <trkpt lat="43.90872" lon="5.36008">
        <ele>312.09</ele>
        <time>2013-12-09T10:44:22Z</time>
      </trkpt>
      <trkpt lat="43.90886" lon="5.36018">
        <ele>313.53</ele>
        <time>2013-12-09T10:44:38Z</time>
      </trkpt>
      <trkpt lat="43.90895" lon="5.36026">
        <ele>314.49</ele>
        <time>2013-12-09T10:44:54Z</time>
      </trkpt>
      <trkpt lat="43.90897" lon="5.36027">
        <ele>314.49</ele>
        <time>2013-12-09T10:45:11Z</time>
      </trkpt>
      <trkpt lat="43.90895" lon="5.36021">
        <ele>315.45</ele>
        <time>2013-12-09T10:45:34Z</time>
      </trkpt>
      <trkpt lat="43.90895" lon="5.3602">
        <ele>315.45</ele>
        <time>2013-12-09T10:45:37Z</time>
      </trkpt>
      <trkpt lat="43.90897" lon="5.36008">
        <ele>315.93</ele>
        <time>2013-12-09T10:45:50Z</time>
      </trkpt>
      <trkpt lat="43.90906" lon="5.35998">
        <ele>318.33</ele>
        <time>2013-12-09T10:46:05Z</time>
      </trkpt>
      <trkpt lat="43.90916" lon="5.35989">
        <ele>318.81</ele>
        <time>2013-12-09T10:46:18Z</time>
      </trkpt>
      <trkpt lat="43.90925" lon="5.35981">
        <ele>320.26</ele>
        <time>2013-12-09T10:46:31Z</time>
      </trkpt>
      <trkpt lat="43.90935" lon="5.35975">
        <ele>322.18</ele>
        <time>2013-12-09T10:46:43Z</time>
      </trkpt>
      <trkpt lat="43.90943" lon="5.35968">
        <ele>324.1</ele>
        <time>2013-12-09T10:46:55Z</time>
      </trkpt>
      <trkpt lat="43.90953" lon="5.35968">
        <ele>325.06</ele>
        <time>2013-12-09T10:47:08Z</time>
      </trkpt>
      <trkpt lat="43.90966" lon="5.35977">
        <ele>326.99</ele>
        <time>2013-12-09T10:47:24Z</time>
      </trkpt>
      <trkpt lat="43.9098" lon="5.35983">
        <ele>328.91</ele>
        <time>2013-12-09T10:47:41Z</time>
      </trkpt>
      <trkpt lat="43.90991" lon="5.35982">
        <ele>330.83</ele>
        <time>2013-12-09T10:47:57Z</time>
      </trkpt>
      <trkpt lat="43.91001" lon="5.35982">
        <ele>332.75</ele>
        <time>2013-12-09T10:48:11Z</time>
      </trkpt>
      <trkpt lat="43.91013" lon="5.35984">
        <ele>334.2</ele>
        <time>2013-12-09T10:48:24Z</time>
      </trkpt>
      <trkpt lat="43.91026" lon="5.35983">
        <ele>335.64</ele>
        <time>2013-12-09T10:48:39Z</time>
      </trkpt>
      <trkpt lat="43.91034" lon="5.35982">
        <ele>336.6</ele>
        <time>2013-12-09T10:48:50Z</time>
      </trkpt>
      <trkpt lat="43.91048" lon="5.35982">
        <ele>338.52</ele>
        <time>2013-12-09T10:49:05Z</time>
      </trkpt>
      <trkpt lat="43.9106" lon="5.35979">
        <ele>339</ele>
        <time>2013-12-09T10:49:16Z</time>
      </trkpt>
      <trkpt lat="43.91074" lon="5.35982">
        <ele>339.96</ele>
        <time>2013-12-09T10:49:28Z</time>
      </trkpt>
      <trkpt lat="43.91077" lon="5.35983">
        <ele>340.44</ele>
        <time>2013-12-09T10:49:41Z</time>
      </trkpt>
      <trkpt lat="43.91074" lon="5.35987">
        <ele>340.44</ele>
        <time>2013-12-09T10:50:00Z</time>
      </trkpt>
      <trkpt lat="43.91077" lon="5.35986">
        <ele>340.44</ele>
        <time>2013-12-09T10:50:13Z</time>
      </trkpt>
      <trkpt lat="43.91089" lon="5.35986">
        <ele>339.96</ele>
        <time>2013-12-09T10:50:27Z</time>
      </trkpt>
      <trkpt lat="43.91098" lon="5.35982">
        <ele>339</ele>
        <time>2013-12-09T10:50:40Z</time>
      </trkpt>
      <trkpt lat="43.91108" lon="5.35978">
        <ele>338.52</ele>
        <time>2013-12-09T10:50:52Z</time>
      </trkpt>
      <trkpt lat="43.91125" lon="5.35973">
        <ele>338.52</ele>
        <time>2013-12-09T10:51:09Z</time>
      </trkpt>
      <trkpt lat="43.91142" lon="5.35972">
        <ele>338.04</ele>
        <time>2013-12-09T10:51:26Z</time>
      </trkpt>
      <trkpt lat="43.91157" lon="5.35973">
        <ele>338.04</ele>
        <time>2013-12-09T10:51:41Z</time>
      </trkpt>
      <trkpt lat="43.9116" lon="5.35975">
        <ele>338.04</ele>
        <time>2013-12-09T10:51:44Z</time>
      </trkpt>
      <trkpt lat="43.91175" lon="5.35977">
        <ele>338.52</ele>
        <time>2013-12-09T10:51:59Z</time>
      </trkpt>
      <trkpt lat="43.9119" lon="5.35984">
        <ele>339</ele>
        <time>2013-12-09T10:52:13Z</time>
      </trkpt>
      <trkpt lat="43.91199" lon="5.35997">
        <ele>339.48</ele>
        <time>2013-12-09T10:52:27Z</time>
      </trkpt>
      <trkpt lat="43.91212" lon="5.36008">
        <ele>340.44</ele>
        <time>2013-12-09T10:52:42Z</time>
      </trkpt>
      <trkpt lat="43.91222" lon="5.36016">
        <ele>340.92</ele>
        <time>2013-12-09T10:52:55Z</time>
      </trkpt>
      <trkpt lat="43.91232" lon="5.36029">
        <ele>342.37</ele>
        <time>2013-12-09T10:53:09Z</time>
      </trkpt>
      <trkpt lat="43.91239" lon="5.36038">
        <ele>343.33</ele>
        <time>2013-12-09T10:53:21Z</time>
      </trkpt>
      <trkpt lat="43.91247" lon="5.36046">
        <ele>345.73</ele>
        <time>2013-12-09T10:53:35Z</time>
      </trkpt>
      <trkpt lat="43.91255" lon="5.36054">
        <ele>347.65</ele>
        <time>2013-12-09T10:53:49Z</time>
      </trkpt>
      <trkpt lat="43.91265" lon="5.36061">
        <ele>350.06</ele>
        <time>2013-12-09T10:54:03Z</time>
      </trkpt>
      <trkpt lat="43.91276" lon="5.36067">
        <ele>352.46</ele>
        <time>2013-12-09T10:54:19Z</time>
      </trkpt>
      <trkpt lat="43.91283" lon="5.3607">
        <ele>355.83</ele>
        <time>2013-12-09T10:54:36Z</time>
      </trkpt>
      <trkpt lat="43.91291" lon="5.36079">
        <ele>357.75</ele>
        <time>2013-12-09T10:54:51Z</time>
      </trkpt>
      <trkpt lat="43.913" lon="5.36086">
        <ele>360.63</ele>
        <time>2013-12-09T10:55:06Z</time>
      </trkpt>
      <trkpt lat="43.9131" lon="5.36092">
        <ele>362.55</ele>
        <time>2013-12-09T10:55:20Z</time>
      </trkpt>
      <trkpt lat="43.91318" lon="5.36104">
        <ele>365.44</ele>
        <time>2013-12-09T10:55:35Z</time>
      </trkpt>
      <trkpt lat="43.91319" lon="5.36114">
        <ele>366.88</ele>
        <time>2013-12-09T10:55:49Z</time>
      </trkpt>
      <trkpt lat="43.91319" lon="5.36122">
        <ele>367.36</ele>
        <time>2013-12-09T10:56:02Z</time>
      </trkpt>
      <trkpt lat="43.91322" lon="5.36124">
        <ele>367.36</ele>
        <time>2013-12-09T10:56:18Z</time>
      </trkpt>
      <trkpt lat="43.9132" lon="5.36128">
        <ele>367.36</ele>
        <time>2013-12-09T10:56:32Z</time>
      </trkpt>
      <trkpt lat="43.91325" lon="5.36129">
        <ele>367.36</ele>
        <time>2013-12-09T10:56:54Z</time>
      </trkpt>
      <trkpt lat="43.91322" lon="5.36128">
        <ele>367.36</ele>
        <time>2013-12-09T10:57:19Z</time>
      </trkpt>
      <trkpt lat="43.91319" lon="5.36129">
        <ele>367.84</ele>
        <time>2013-12-09T10:57:34Z</time>
      </trkpt>
      <trkpt lat="43.91319" lon="5.36124">
        <ele>367.36</ele>
        <time>2013-12-09T10:58:05Z</time>
      </trkpt>
      <trkpt lat="43.91319" lon="5.36124">
        <ele>367.84</ele>
        <time>2013-12-09T10:58:31Z</time>
      </trkpt>
      <trkpt lat="43.91327" lon="5.36132">
        <ele>369.28</ele>
        <time>2013-12-09T10:58:45Z</time>
      </trkpt>
      <trkpt lat="43.91335" lon="5.36146">
        <ele>370.24</ele>
        <time>2013-12-09T10:59:01Z</time>
      </trkpt>
      <trkpt lat="43.91338" lon="5.36165">
        <ele>370.24</ele>
        <time>2013-12-09T10:59:14Z</time>
      </trkpt>
      <trkpt lat="43.91341" lon="5.36182">
        <ele>370.24</ele>
        <time>2013-12-09T10:59:29Z</time>
      </trkpt>
      <trkpt lat="43.91342" lon="5.36204">
        <ele>370.24</ele>
        <time>2013-12-09T10:59:44Z</time>
      </trkpt>
      <trkpt lat="43.91345" lon="5.36221">
        <ele>372.17</ele>
        <time>2013-12-09T11:00:02Z</time>
      </trkpt>
      <trkpt lat="43.91336" lon="5.36233">
        <ele>374.09</ele>
        <time>2013-12-09T11:00:16Z</time>
      </trkpt>
      <trkpt lat="43.91335" lon="5.36245">
        <ele>375.05</ele>
        <time>2013-12-09T11:00:30Z</time>
      </trkpt>
      <trkpt lat="43.91346" lon="5.36245">
        <ele>376.97</ele>
        <time>2013-12-09T11:00:45Z</time>
      </trkpt>
      <trkpt lat="43.91354" lon="5.36246">
        <ele>379.86</ele>
        <time>2013-12-09T11:01:01Z</time>
      </trkpt>
      <trkpt lat="43.91359" lon="5.36259">
        <ele>382.74</ele>
        <time>2013-12-09T11:01:16Z</time>
      </trkpt>
      <trkpt lat="43.91366" lon="5.3626">
        <ele>384.66</ele>
        <time>2013-12-09T11:01:29Z</time>
      </trkpt>
      <trkpt lat="43.91373" lon="5.36261">
        <ele>387.55</ele>
        <time>2013-12-09T11:01:42Z</time>
      </trkpt>
      <trkpt lat="43.9138" lon="5.36265">
        <ele>390.43</ele>
        <time>2013-12-09T11:01:59Z</time>
      </trkpt>
      <trkpt lat="43.91389" lon="5.36271">
        <ele>392.84</ele>
        <time>2013-12-09T11:02:13Z</time>
      </trkpt>
      <trkpt lat="43.914" lon="5.36275">
        <ele>395.72</ele>
        <time>2013-12-09T11:02:30Z</time>
      </trkpt>
      <trkpt lat="43.914" lon="5.36278">
        <ele>395.72</ele>
        <time>2013-12-09T11:02:48Z</time>
      </trkpt>
      <trkpt lat="43.91401" lon="5.36275">
        <ele>395.72</ele>
        <time>2013-12-09T11:03:15Z</time>
      </trkpt>
      <trkpt lat="43.91405" lon="5.36275">
        <ele>396.2</ele>
        <time>2013-12-09T11:03:38Z</time>
      </trkpt>
      <trkpt lat="43.91405" lon="5.36278">
        <ele>397.16</ele>
        <time>2013-12-09T11:04:11Z</time>
      </trkpt>
      <trkpt lat="43.91407" lon="5.36268">
        <ele>399.57</ele>
        <time>2013-12-09T11:04:27Z</time>
      </trkpt>
      <trkpt lat="43.91411" lon="5.36264">
        <ele>401.97</ele>
        <time>2013-12-09T11:04:41Z</time>
      </trkpt>
      <trkpt lat="43.91412" lon="5.36262">
        <ele>403.41</ele>
        <time>2013-12-09T11:04:55Z</time>
      </trkpt>
      <trkpt lat="43.91418" lon="5.36259">
        <ele>406.77</ele>
        <time>2013-12-09T11:05:11Z</time>
      </trkpt>
      <trkpt lat="43.9142" lon="5.36271">
        <ele>409.18</ele>
        <time>2013-12-09T11:05:27Z</time>
      </trkpt>
      <trkpt lat="43.91425" lon="5.36275">
        <ele>411.58</ele>
        <time>2013-12-09T11:05:43Z</time>
      </trkpt>
      <trkpt lat="43.9143" lon="5.3627">
        <ele>413.02</ele>
        <time>2013-12-09T11:05:55Z</time>
      </trkpt>
      <trkpt lat="43.91434" lon="5.36269">
        <ele>414.47</ele>
        <time>2013-12-09T11:06:06Z</time>
      </trkpt>
      <trkpt lat="43.9144" lon="5.36263">
        <ele>417.83</ele>
        <time>2013-12-09T11:06:20Z</time>
      </trkpt>
      <trkpt lat="43.91443" lon="5.36257">
        <ele>418.79</ele>
        <time>2013-12-09T11:06:35Z</time>
      </trkpt>
      <trkpt lat="43.91445" lon="5.36259">
        <ele>418.79</ele>
        <time>2013-12-09T11:06:55Z</time>
      </trkpt>
      <trkpt lat="43.91446" lon="5.36267">
        <ele>420.71</ele>
        <time>2013-12-09T11:07:14Z</time>
      </trkpt>
      <trkpt lat="43.91448" lon="5.3628">
        <ele>422.64</ele>
        <time>2013-12-09T11:07:30Z</time>
      </trkpt>
      <trkpt lat="43.91451" lon="5.36283">
        <ele>425.04</ele>
        <time>2013-12-09T11:07:44Z</time>
      </trkpt>
      <trkpt lat="43.91455" lon="5.36276">
        <ele>426.96</ele>
        <time>2013-12-09T11:07:56Z</time>
      </trkpt>
      <trkpt lat="43.91461" lon="5.36269">
        <ele>429.37</ele>
        <time>2013-12-09T11:08:10Z</time>
      </trkpt>
      <trkpt lat="43.91465" lon="5.36265">
        <ele>430.81</ele>
        <time>2013-12-09T11:08:22Z</time>
      </trkpt>
      <trkpt lat="43.91468" lon="5.36269">
        <ele>434.17</ele>
        <time>2013-12-09T11:08:36Z</time>
      </trkpt>
      <trkpt lat="43.91469" lon="5.36268">
        <ele>434.17</ele>
        <time>2013-12-09T11:08:54Z</time>
      </trkpt>
      <trkpt lat="43.91474" lon="5.36258">
        <ele>436.1</ele>
        <time>2013-12-09T11:09:08Z</time>
      </trkpt>
      <trkpt lat="43.91483" lon="5.36253">
        <ele>439.46</ele>
        <time>2013-12-09T11:09:23Z</time>
      </trkpt>
      <trkpt lat="43.9149" lon="5.36252">
        <ele>441.86</ele>
        <time>2013-12-09T11:09:38Z</time>
      </trkpt>
      <trkpt lat="43.91493" lon="5.36251">
        <ele>441.86</ele>
        <time>2013-12-09T11:09:52Z</time>
      </trkpt>
      <trkpt lat="43.91501" lon="5.36244">
        <ele>444.27</ele>
        <time>2013-12-09T11:10:04Z</time>
      </trkpt>
      <trkpt lat="43.9151" lon="5.36239">
        <ele>446.19</ele>
        <time>2013-12-09T11:10:17Z</time>
      </trkpt>
      <trkpt lat="43.91516" lon="5.36235">
        <ele>448.11</ele>
        <time>2013-12-09T11:10:30Z</time>
      </trkpt>
      <trkpt lat="43.91523" lon="5.3623">
        <ele>450.03</ele>
        <time>2013-12-09T11:10:44Z</time>
      </trkpt>
      <trkpt lat="43.91531" lon="5.36242">
        <ele>452.44</ele>
        <time>2013-12-09T11:10:59Z</time>
      </trkpt>
      <trkpt lat="43.9154" lon="5.36245">
        <ele>454.84</ele>
        <time>2013-12-09T11:11:13Z</time>
      </trkpt>
      <trkpt lat="43.91539" lon="5.36246">
        <ele>454.84</ele>
        <time>2013-12-09T11:11:32Z</time>
      </trkpt>
      <trkpt lat="43.91543" lon="5.36248">
        <ele>454.84</ele>
        <time>2013-12-09T11:11:49Z</time>
      </trkpt>
      <trkpt lat="43.9155" lon="5.36245">
        <ele>455.8</ele>
        <time>2013-12-09T11:12:01Z</time>
      </trkpt>
      <trkpt lat="43.91556" lon="5.36238">
        <ele>456.76</ele>
        <time>2013-12-09T11:12:13Z</time>
      </trkpt>
      <trkpt lat="43.91561" lon="5.36237">
        <ele>457.24</ele>
        <time>2013-12-09T11:12:19Z</time>
      </trkpt>
      <trkpt lat="43.91574" lon="5.3624">
        <ele>458.21</ele>
        <time>2013-12-09T11:12:35Z</time>
      </trkpt>
      <trkpt lat="43.91584" lon="5.3624">
        <ele>459.17</ele>
        <time>2013-12-09T11:12:46Z</time>
      </trkpt>
      <trkpt lat="43.91596" lon="5.36239">
        <ele>460.61</ele>
        <time>2013-12-09T11:13:00Z</time>
      </trkpt>
      <trkpt lat="43.91598" lon="5.36239">
        <ele>461.09</ele>
        <time>2013-12-09T11:13:02Z</time>
      </trkpt>
      <trkpt lat="43.9161" lon="5.36241">
        <ele>462.53</ele>
        <time>2013-12-09T11:13:18Z</time>
      </trkpt>
      <trkpt lat="43.91617" lon="5.36246">
        <ele>463.01</ele>
        <time>2013-12-09T11:13:27Z</time>
      </trkpt>
      <trkpt lat="43.91624" lon="5.36255">
        <ele>463.97</ele>
        <time>2013-12-09T11:13:40Z</time>
      </trkpt>
      <trkpt lat="43.91637" lon="5.36262">
        <ele>464.93</ele>
        <time>2013-12-09T11:13:54Z</time>
      </trkpt>
      <trkpt lat="43.91652" lon="5.3627">
        <ele>465.42</ele>
        <time>2013-12-09T11:14:09Z</time>
      </trkpt>
      <trkpt lat="43.91653" lon="5.3627">
        <ele>464.93</ele>
        <time>2013-12-09T11:14:10Z</time>
      </trkpt>
      <trkpt lat="43.91657" lon="5.36271">
        <ele>465.42</ele>
        <time>2013-12-09T11:14:14Z</time>
      </trkpt>
      <trkpt lat="43.91666" lon="5.36275">
        <ele>465.9</ele>
        <time>2013-12-09T11:14:23Z</time>
      </trkpt>
      <trkpt lat="43.91678" lon="5.36281">
        <ele>466.38</ele>
        <time>2013-12-09T11:14:36Z</time>
      </trkpt>
      <trkpt lat="43.91694" lon="5.3629">
        <ele>467.34</ele>
        <time>2013-12-09T11:14:52Z</time>
      </trkpt>
      <trkpt lat="43.91703" lon="5.36297">
        <ele>467.34</ele>
        <time>2013-12-09T11:15:03Z</time>
      </trkpt>
      <trkpt lat="43.91704" lon="5.36298">
        <ele>467.34</ele>
        <time>2013-12-09T11:15:04Z</time>
      </trkpt>
      <trkpt lat="43.91711" lon="5.363">
        <ele>467.82</ele>
        <time>2013-12-09T11:15:10Z</time>
      </trkpt>
      <trkpt lat="43.91716" lon="5.36302">
        <ele>468.3</ele>
        <time>2013-12-09T11:15:16Z</time>
      </trkpt>
      <trkpt lat="43.91727" lon="5.36309">
        <ele>468.78</ele>
        <time>2013-12-09T11:15:28Z</time>
      </trkpt>
      <trkpt lat="43.91737" lon="5.36306">
        <ele>469.26</ele>
        <time>2013-12-09T11:15:40Z</time>
      </trkpt>
      <trkpt lat="43.91734" lon="5.36308">
        <ele>469.26</ele>
        <time>2013-12-09T11:15:55Z</time>
      </trkpt>
      <trkpt lat="43.91735" lon="5.36309">
        <ele>467.82</ele>
        <time>2013-12-09T11:16:08Z</time>
      </trkpt>
      <trkpt lat="43.91734" lon="5.36308">
        <ele>324.1</ele>
        <time>2013-12-09T11:54:37Z</time>
      </trkpt>
      <trkpt lat="43.91739" lon="5.36301">
        <ele>324.1</ele>
        <time>2013-12-09T11:54:38Z</time>
      </trkpt>
      <trkpt lat="43.91736" lon="5.36309">
        <ele>329.39</ele>
        <time>2013-12-09T11:54:47Z</time>
      </trkpt>
      <trkpt lat="43.91737" lon="5.36309">
        <ele>334.2</ele>
        <time>2013-12-09T11:54:48Z</time>
      </trkpt>
      <trkpt lat="43.91737" lon="5.3631">
        <ele>339</ele>
        <time>2013-12-09T11:54:49Z</time>
      </trkpt>
      <trkpt lat="43.91737" lon="5.3631">
        <ele>343.33</ele>
        <time>2013-12-09T11:54:50Z</time>
      </trkpt>
      <trkpt lat="43.91737" lon="5.3631">
        <ele>347.65</ele>
        <time>2013-12-09T11:54:51Z</time>
      </trkpt>
      <trkpt lat="43.91737" lon="5.3631">
        <ele>351.98</ele>
        <time>2013-12-09T11:54:52Z</time>
      </trkpt>
      <trkpt lat="43.91737" lon="5.3631">
        <ele>355.83</ele>
        <time>2013-12-09T11:54:53Z</time>
      </trkpt>
      <trkpt lat="43.91736" lon="5.3631">
        <ele>360.15</ele>
        <time>2013-12-09T11:54:54Z</time>
      </trkpt>
      <trkpt lat="43.91736" lon="5.36311">
        <ele>364</ele>
        <time>2013-12-09T11:54:55Z</time>
      </trkpt>
      <trkpt lat="43.91736" lon="5.36311">
        <ele>367.36</ele>
        <time>2013-12-09T11:54:56Z</time>
      </trkpt>
      <trkpt lat="43.91736" lon="5.36311">
        <ele>371.21</ele>
        <time>2013-12-09T11:54:57Z</time>
      </trkpt>
      <trkpt lat="43.91735" lon="5.36311">
        <ele>374.57</ele>
        <time>2013-12-09T11:54:58Z</time>
      </trkpt>
      <trkpt lat="43.91735" lon="5.36312">
        <ele>381.3</ele>
        <time>2013-12-09T11:54:59Z</time>
      </trkpt>
      <trkpt lat="43.91735" lon="5.36312">
        <ele>381.3</ele>
        <time>2013-12-09T11:55:00Z</time>
      </trkpt>
      <trkpt lat="43.91735" lon="5.36311">
        <ele>384.66</ele>
        <time>2013-12-09T11:55:01Z</time>
      </trkpt>
      <trkpt lat="43.91735" lon="5.36311">
        <ele>393.32</ele>
        <time>2013-12-09T11:55:03Z</time>
      </trkpt>
      <trkpt lat="43.91735" lon="5.36311">
        <ele>393.32</ele>
        <time>2013-12-09T11:55:04Z</time>
      </trkpt>
      <trkpt lat="43.91735" lon="5.36311">
        <ele>398.6</ele>
        <time>2013-12-09T11:55:06Z</time>
      </trkpt>
      <trkpt lat="43.91735" lon="5.36312">
        <ele>403.41</ele>
        <time>2013-12-09T11:55:08Z</time>
      </trkpt>
      <trkpt lat="43.91735" lon="5.36312">
        <ele>408.22</ele>
        <time>2013-12-09T11:55:10Z</time>
      </trkpt>
      <trkpt lat="43.91735" lon="5.36313">
        <ele>412.54</ele>
        <time>2013-12-09T11:55:12Z</time>
      </trkpt>
      <trkpt lat="43.91735" lon="5.36313">
        <ele>416.39</ele>
        <time>2013-12-09T11:55:14Z</time>
      </trkpt>
      <trkpt lat="43.91735" lon="5.36313">
        <ele>419.75</ele>
        <time>2013-12-09T11:55:16Z</time>
      </trkpt>
      <trkpt lat="43.91735" lon="5.36312">
        <ele>423.12</ele>
        <time>2013-12-09T11:55:18Z</time>
      </trkpt>
      <trkpt lat="43.91735" lon="5.36311">
        <ele>426.48</ele>
        <time>2013-12-09T11:55:20Z</time>
      </trkpt>
      <trkpt lat="43.91735" lon="5.36311">
        <ele>430.81</ele>
        <time>2013-12-09T11:55:23Z</time>
      </trkpt>
      <trkpt lat="43.91735" lon="5.36311">
        <ele>434.65</ele>
        <time>2013-12-09T11:55:26Z</time>
      </trkpt>
      <trkpt lat="43.91735" lon="5.36311">
        <ele>437.06</ele>
        <time>2013-12-09T11:55:28Z</time>
      </trkpt>
      <trkpt lat="43.91734" lon="5.36313">
        <ele>440.9</ele>
        <time>2013-12-09T11:55:31Z</time>
      </trkpt>
      <trkpt lat="43.91734" lon="5.36314">
        <ele>444.27</ele>
        <time>2013-12-09T11:55:34Z</time>
      </trkpt>
      <trkpt lat="43.91734" lon="5.36314">
        <ele>447.63</ele>
        <time>2013-12-09T11:55:38Z</time>
      </trkpt>
      <trkpt lat="43.91735" lon="5.36314">
        <ele>451.48</ele>
        <time>2013-12-09T11:55:41Z</time>
      </trkpt>
      <trkpt lat="43.91734" lon="5.36314">
        <ele>452.44</ele>
        <time>2013-12-09T11:55:43Z</time>
      </trkpt>
      <trkpt lat="43.91735" lon="5.36313">
        <ele>455.32</ele>
        <time>2013-12-09T11:55:47Z</time>
      </trkpt>
      <trkpt lat="43.91734" lon="5.36309">
        <ele>458.69</ele>
        <time>2013-12-09T11:55:52Z</time>
      </trkpt>
      <trkpt lat="43.91734" lon="5.36308">
        <ele>461.57</ele>
        <time>2013-12-09T11:55:59Z</time>
      </trkpt>
      <trkpt lat="43.91734" lon="5.36309">
        <ele>464.93</ele>
        <time>2013-12-09T11:56:08Z</time>
      </trkpt>
      <trkpt lat="43.91734" lon="5.36309">
        <ele>468.3</ele>
        <time>2013-12-09T11:56:23Z</time>
      </trkpt>
      <trkpt lat="43.91735" lon="5.36308">
        <ele>468.78</ele>
        <time>2013-12-09T11:57:00Z</time>
      </trkpt>
      <trkpt lat="43.91735" lon="5.3631">
        <ele>468.78</ele>
        <time>2013-12-09T11:57:12Z</time>
      </trkpt>
      <trkpt lat="43.91734" lon="5.36313">
        <ele>468.78</ele>
        <time>2013-12-09T11:57:28Z</time>
      </trkpt>
      <trkpt lat="43.91735" lon="5.36313">
        <ele>469.26</ele>
        <time>2013-12-09T11:57:46Z</time>
      </trkpt>
      <trkpt lat="43.91734" lon="5.36314">
        <ele>468.78</ele>
        <time>2013-12-09T11:58:05Z</time>
      </trkpt>
      <trkpt lat="43.91735" lon="5.36311">
        <ele>468.78</ele>
        <time>2013-12-09T11:58:22Z</time>
      </trkpt>
      <trkpt lat="43.91732" lon="5.36312">
        <ele>469.26</ele>
        <time>2013-12-09T11:58:35Z</time>
      </trkpt>
      <trkpt lat="43.91731" lon="5.36312">
        <ele>469.26</ele>
        <time>2013-12-09T11:58:50Z</time>
      </trkpt>
      <trkpt lat="43.91734" lon="5.36312">
        <ele>469.26</ele>
        <time>2013-12-09T11:59:07Z</time>
      </trkpt>
      <trkpt lat="43.91734" lon="5.36314">
        <ele>469.26</ele>
        <time>2013-12-09T11:59:32Z</time>
      </trkpt>
      <trkpt lat="43.91736" lon="5.36315">
        <ele>469.26</ele>
        <time>2013-12-09T11:59:49Z</time>
      </trkpt>
      <trkpt lat="43.91747" lon="5.36323">
        <ele>469.74</ele>
        <time>2013-12-09T12:00:04Z</time>
      </trkpt>
      <trkpt lat="43.91757" lon="5.36328">
        <ele>470.22</ele>
        <time>2013-12-09T12:00:17Z</time>
      </trkpt>
      <trkpt lat="43.91766" lon="5.36334">
        <ele>471.18</ele>
        <time>2013-12-09T12:00:29Z</time>
      </trkpt>
      <trkpt lat="43.91777" lon="5.36338">
        <ele>471.66</ele>
        <time>2013-12-09T12:00:42Z</time>
      </trkpt>
      <trkpt lat="43.91787" lon="5.36345">
        <ele>471.66</ele>
        <time>2013-12-09T12:00:57Z</time>
      </trkpt>
      <trkpt lat="43.91798" lon="5.36358">
        <ele>471.18</ele>
        <time>2013-12-09T12:01:12Z</time>
      </trkpt>
      <trkpt lat="43.91807" lon="5.36367">
        <ele>470.7</ele>
        <time>2013-12-09T12:01:28Z</time>
      </trkpt>
      <trkpt lat="43.91811" lon="5.3638">
        <ele>468.78</ele>
        <time>2013-12-09T12:01:43Z</time>
      </trkpt>
      <trkpt lat="43.91818" lon="5.3639">
        <ele>468.3</ele>
        <time>2013-12-09T12:01:57Z</time>
      </trkpt>
      <trkpt lat="43.91824" lon="5.36399">
        <ele>467.82</ele>
        <time>2013-12-09T12:02:12Z</time>
      </trkpt>
      <trkpt lat="43.91823" lon="5.36398">
        <ele>467.82</ele>
        <time>2013-12-09T12:02:32Z</time>
      </trkpt>
      <trkpt lat="43.91824" lon="5.36397">
        <ele>467.82</ele>
        <time>2013-12-09T12:03:00Z</time>
      </trkpt>
      <trkpt lat="43.91824" lon="5.364">
        <ele>467.82</ele>
        <time>2013-12-09T12:03:15Z</time>
      </trkpt>
      <trkpt lat="43.91834" lon="5.364">
        <ele>467.82</ele>
        <time>2013-12-09T12:03:28Z</time>
      </trkpt>
      <trkpt lat="43.91843" lon="5.36403">
        <ele>466.86</ele>
        <time>2013-12-09T12:03:42Z</time>
      </trkpt>
      <trkpt lat="43.91854" lon="5.36412">
        <ele>464.45</ele>
        <time>2013-12-09T12:04:00Z</time>
      </trkpt>
      <trkpt lat="43.91863" lon="5.36421">
        <ele>462.53</ele>
        <time>2013-12-09T12:04:19Z</time>
      </trkpt>
      <trkpt lat="43.9187" lon="5.36431">
        <ele>460.61</ele>
        <time>2013-12-09T12:04:35Z</time>
      </trkpt>
      <trkpt lat="43.9188" lon="5.36446">
        <ele>457.72</ele>
        <time>2013-12-09T12:04:54Z</time>
      </trkpt>
      <trkpt lat="43.91889" lon="5.36457">
        <ele>455.32</ele>
        <time>2013-12-09T12:05:12Z</time>
      </trkpt>
      <trkpt lat="43.91897" lon="5.36471">
        <ele>452.92</ele>
        <time>2013-12-09T12:05:31Z</time>
      </trkpt>
      <trkpt lat="43.91899" lon="5.3647">
        <ele>452.44</ele>
        <time>2013-12-09T12:05:47Z</time>
      </trkpt>
      <trkpt lat="43.91899" lon="5.36474">
        <ele>451.96</ele>
        <time>2013-12-09T12:05:56Z</time>
      </trkpt>
      <trkpt lat="43.91898" lon="5.36472">
        <ele>448.59</ele>
        <time>2013-12-09T12:06:22Z</time>
      </trkpt>
      <trkpt lat="43.91908" lon="5.36487">
        <ele>448.11</ele>
        <time>2013-12-09T12:06:23Z</time>
      </trkpt>
      <trkpt lat="43.91914" lon="5.36506">
        <ele>445.71</ele>
        <time>2013-12-09T12:06:43Z</time>
      </trkpt>
      <trkpt lat="43.91923" lon="5.3652">
        <ele>442.82</ele>
        <time>2013-12-09T12:07:04Z</time>
      </trkpt>
      <trkpt lat="43.91933" lon="5.36526">
        <ele>440.42</ele>
        <time>2013-12-09T12:07:19Z</time>
      </trkpt>
      <trkpt lat="43.91945" lon="5.3653">
        <ele>439.46</ele>
        <time>2013-12-09T12:07:34Z</time>
      </trkpt>
      <trkpt lat="43.91953" lon="5.36539">
        <ele>438.02</ele>
        <time>2013-12-09T12:07:49Z</time>
      </trkpt>
      <trkpt lat="43.91967" lon="5.36547">
        <ele>436.58</ele>
        <time>2013-12-09T12:08:05Z</time>
      </trkpt>
      <trkpt lat="43.91977" lon="5.36553">
        <ele>435.61</ele>
        <time>2013-12-09T12:08:20Z</time>
      </trkpt>
      <trkpt lat="43.91991" lon="5.36562">
        <ele>434.65</ele>
        <time>2013-12-09T12:08:36Z</time>
      </trkpt>
      <trkpt lat="43.92005" lon="5.36571">
        <ele>433.21</ele>
        <time>2013-12-09T12:08:53Z</time>
      </trkpt>
      <trkpt lat="43.92016" lon="5.36581">
        <ele>432.25</ele>
        <time>2013-12-09T12:09:07Z</time>
      </trkpt>
      <trkpt lat="43.92026" lon="5.36593">
        <ele>431.29</ele>
        <time>2013-12-09T12:09:25Z</time>
      </trkpt>
      <trkpt lat="43.92026" lon="5.36594">
        <ele>431.29</ele>
        <time>2013-12-09T12:09:27Z</time>
      </trkpt>
      <trkpt lat="43.92047" lon="5.36602">
        <ele>430.81</ele>
        <time>2013-12-09T12:09:45Z</time>
      </trkpt>
      <trkpt lat="43.92056" lon="5.36602">
        <ele>430.33</ele>
        <time>2013-12-09T12:09:58Z</time>
      </trkpt>
      <trkpt lat="43.92073" lon="5.36599">
        <ele>429.37</ele>
        <time>2013-12-09T12:10:14Z</time>
      </trkpt>
      <trkpt lat="43.92083" lon="5.36586">
        <ele>426</ele>
        <time>2013-12-09T12:10:31Z</time>
      </trkpt>
      <trkpt lat="43.9209" lon="5.36579">
        <ele>424.08</ele>
        <time>2013-12-09T12:10:43Z</time>
      </trkpt>
      <trkpt lat="43.92099" lon="5.36575">
        <ele>422.64</ele>
        <time>2013-12-09T12:10:55Z</time>
      </trkpt>
      <trkpt lat="43.9211" lon="5.36571">
        <ele>421.68</ele>
        <time>2013-12-09T12:11:09Z</time>
      </trkpt>
      <trkpt lat="43.92121" lon="5.36566">
        <ele>420.71</ele>
        <time>2013-12-09T12:11:23Z</time>
      </trkpt>
      <trkpt lat="43.92138" lon="5.36559">
        <ele>419.75</ele>
        <time>2013-12-09T12:11:40Z</time>
      </trkpt>
      <trkpt lat="43.92154" lon="5.36556">
        <ele>418.79</ele>
        <time>2013-12-09T12:11:56Z</time>
      </trkpt>
      <trkpt lat="43.9216" lon="5.36553">
        <ele>417.83</ele>
        <time>2013-12-09T12:12:02Z</time>
      </trkpt>
      <trkpt lat="43.9217" lon="5.36549">
        <ele>416.87</ele>
        <time>2013-12-09T12:12:18Z</time>
      </trkpt>
      <trkpt lat="43.92182" lon="5.36544">
        <ele>415.43</ele>
        <time>2013-12-09T12:12:32Z</time>
      </trkpt>
      <trkpt lat="43.92192" lon="5.36537">
        <ele>413.98</ele>
        <time>2013-12-09T12:12:45Z</time>
      </trkpt>
      <trkpt lat="43.92201" lon="5.36535">
        <ele>413.02</ele>
        <time>2013-12-09T12:13:00Z</time>
      </trkpt>
      <trkpt lat="43.92212" lon="5.3653">
        <ele>412.54</ele>
        <time>2013-12-09T12:13:14Z</time>
      </trkpt>
      <trkpt lat="43.92222" lon="5.36522">
        <ele>411.1</ele>
        <time>2013-12-09T12:13:28Z</time>
      </trkpt>
      <trkpt lat="43.92241" lon="5.36511">
        <ele>408.7</ele>
        <time>2013-12-09T12:13:44Z</time>
      </trkpt>
      <trkpt lat="43.9225" lon="5.36509">
        <ele>406.29</ele>
        <time>2013-12-09T12:13:58Z</time>
      </trkpt>
      <trkpt lat="43.9226" lon="5.36508">
        <ele>404.37</ele>
        <time>2013-12-09T12:14:14Z</time>
      </trkpt>
      <trkpt lat="43.92273" lon="5.36507">
        <ele>401.97</ele>
        <time>2013-12-09T12:14:32Z</time>
      </trkpt>
      <trkpt lat="43.92281" lon="5.36507">
        <ele>399.57</ele>
        <time>2013-12-09T12:14:50Z</time>
      </trkpt>
      <trkpt lat="43.92289" lon="5.36504">
        <ele>398.12</ele>
        <time>2013-12-09T12:15:04Z</time>
      </trkpt>
      <trkpt lat="43.923" lon="5.365">
        <ele>396.68</ele>
        <time>2013-12-09T12:15:19Z</time>
      </trkpt>
      <trkpt lat="43.92307" lon="5.36499">
        <ele>395.24</ele>
        <time>2013-12-09T12:15:33Z</time>
      </trkpt>
      <trkpt lat="43.92314" lon="5.36497">
        <ele>393.32</ele>
        <time>2013-12-09T12:15:48Z</time>
      </trkpt>
      <trkpt lat="43.9232" lon="5.36498">
        <ele>391.87</ele>
        <time>2013-12-09T12:16:02Z</time>
      </trkpt>
      <trkpt lat="43.92328" lon="5.36498">
        <ele>388.99</ele>
        <time>2013-12-09T12:16:18Z</time>
      </trkpt>
      <trkpt lat="43.92336" lon="5.36496">
        <ele>387.07</ele>
        <time>2013-12-09T12:16:34Z</time>
      </trkpt>
      <trkpt lat="43.92344" lon="5.3649">
        <ele>386.59</ele>
        <time>2013-12-09T12:16:47Z</time>
      </trkpt>
      <trkpt lat="43.92348" lon="5.3649">
        <ele>385.63</ele>
        <time>2013-12-09T12:16:58Z</time>
      </trkpt>
      <trkpt lat="43.92355" lon="5.36487">
        <ele>385.63</ele>
        <time>2013-12-09T12:17:13Z</time>
      </trkpt>
      <trkpt lat="43.92356" lon="5.36486">
        <ele>385.63</ele>
        <time>2013-12-09T12:17:15Z</time>
      </trkpt>
      <trkpt lat="43.92369" lon="5.36489">
        <ele>385.15</ele>
        <time>2013-12-09T12:17:29Z</time>
      </trkpt>
      <trkpt lat="43.92376" lon="5.36495">
        <ele>384.66</ele>
        <time>2013-12-09T12:17:39Z</time>
      </trkpt>
      <trkpt lat="43.92388" lon="5.36507">
        <ele>384.18</ele>
        <time>2013-12-09T12:17:55Z</time>
      </trkpt>
      <trkpt lat="43.92404" lon="5.36523">
        <ele>384.66</ele>
        <time>2013-12-09T12:18:13Z</time>
      </trkpt>
      <trkpt lat="43.9241" lon="5.3653">
        <ele>384.66</ele>
        <time>2013-12-09T12:18:21Z</time>
      </trkpt>
      <trkpt lat="43.92417" lon="5.36536">
        <ele>384.66</ele>
        <time>2013-12-09T12:18:31Z</time>
      </trkpt>
      <trkpt lat="43.92426" lon="5.36548">
        <ele>383.7</ele>
        <time>2013-12-09T12:18:45Z</time>
      </trkpt>
      <trkpt lat="43.92436" lon="5.36565">
        <ele>382.26</ele>
        <time>2013-12-09T12:19:02Z</time>
      </trkpt>
      <trkpt lat="43.92437" lon="5.36566">
        <ele>382.26</ele>
        <time>2013-12-09T12:19:03Z</time>
      </trkpt>
      <trkpt lat="43.92437" lon="5.36581">
        <ele>380.34</ele>
        <time>2013-12-09T12:19:19Z</time>
      </trkpt>
      <trkpt lat="43.92436" lon="5.36607">
        <ele>379.38</ele>
        <time>2013-12-09T12:19:35Z</time>
      </trkpt>
      <trkpt lat="43.92435" lon="5.36624">
        <ele>377.94</ele>
        <time>2013-12-09T12:19:47Z</time>
      </trkpt>
      <trkpt lat="43.92432" lon="5.36639">
        <ele>376.97</ele>
        <time>2013-12-09T12:20:00Z</time>
      </trkpt>
      <trkpt lat="43.92431" lon="5.36659">
        <ele>375.53</ele>
        <time>2013-12-09T12:20:15Z</time>
      </trkpt>
      <trkpt lat="43.92428" lon="5.36681">
        <ele>374.57</ele>
        <time>2013-12-09T12:20:32Z</time>
      </trkpt>
      <trkpt lat="43.92426" lon="5.36701">
        <ele>373.13</ele>
        <time>2013-12-09T12:20:47Z</time>
      </trkpt>
      <trkpt lat="43.92423" lon="5.36717">
        <ele>372.17</ele>
        <time>2013-12-09T12:21:00Z</time>
      </trkpt>
      <trkpt lat="43.92421" lon="5.36734">
        <ele>370.73</ele>
        <time>2013-12-09T12:21:14Z</time>
      </trkpt>
      <trkpt lat="43.92417" lon="5.36754">
        <ele>369.76</ele>
        <time>2013-12-09T12:21:29Z</time>
      </trkpt>
      <trkpt lat="43.92415" lon="5.36773">
        <ele>368.8</ele>
        <time>2013-12-09T12:21:47Z</time>
      </trkpt>
      <trkpt lat="43.92411" lon="5.36782">
        <ele>368.8</ele>
        <time>2013-12-09T12:22:00Z</time>
      </trkpt>
      <trkpt lat="43.92414" lon="5.36783">
        <ele>368.8</ele>
        <time>2013-12-09T12:22:16Z</time>
      </trkpt>
      <trkpt lat="43.9241" lon="5.36783">
        <ele>368.32</ele>
        <time>2013-12-09T12:22:30Z</time>
      </trkpt>
      <trkpt lat="43.92406" lon="5.36782">
        <ele>368.8</ele>
        <time>2013-12-09T12:22:35Z</time>
      </trkpt>
      <trkpt lat="43.92389" lon="5.36781">
        <ele>370.24</ele>
        <time>2013-12-09T12:22:51Z</time>
      </trkpt>
      <trkpt lat="43.92376" lon="5.36779">
        <ele>370.24</ele>
        <time>2013-12-09T12:23:04Z</time>
      </trkpt>
      <trkpt lat="43.9236" lon="5.36776">
        <ele>371.21</ele>
        <time>2013-12-09T12:23:18Z</time>
      </trkpt>
      <trkpt lat="43.92349" lon="5.36772">
        <ele>372.17</ele>
        <time>2013-12-09T12:23:28Z</time>
      </trkpt>
      <trkpt lat="43.92333" lon="5.36768">
        <ele>373.61</ele>
        <time>2013-12-09T12:23:44Z</time>
      </trkpt>
      <trkpt lat="43.92326" lon="5.36762">
        <ele>374.09</ele>
        <time>2013-12-09T12:23:51Z</time>
      </trkpt>
      <trkpt lat="43.9231" lon="5.36758">
        <ele>375.05</ele>
        <time>2013-12-09T12:24:05Z</time>
      </trkpt>
      <trkpt lat="43.92295" lon="5.36759">
        <ele>375.53</ele>
        <time>2013-12-09T12:24:17Z</time>
      </trkpt>
      <trkpt lat="43.92277" lon="5.36767">
        <ele>376.01</ele>
        <time>2013-12-09T12:24:33Z</time>
      </trkpt>
      <trkpt lat="43.92268" lon="5.36772">
        <ele>376.01</ele>
        <time>2013-12-09T12:24:45Z</time>
      </trkpt>
      <trkpt lat="43.92266" lon="5.36772">
        <ele>376.01</ele>
        <time>2013-12-09T12:24:46Z</time>
      </trkpt>
      <trkpt lat="43.92263" lon="5.36772">
        <ele>376.01</ele>
        <time>2013-12-09T12:24:49Z</time>
      </trkpt>
      <trkpt lat="43.92246" lon="5.36776">
        <ele>376.49</ele>
        <time>2013-12-09T12:25:03Z</time>
      </trkpt>
      <trkpt lat="43.92228" lon="5.36775">
        <ele>377.94</ele>
        <time>2013-12-09T12:25:20Z</time>
      </trkpt>
      <trkpt lat="43.92204" lon="5.36776">
        <ele>376.49</ele>
        <time>2013-12-09T12:25:40Z</time>
      </trkpt>
      <trkpt lat="43.92182" lon="5.36776">
        <ele>375.05</ele>
        <time>2013-12-09T12:25:59Z</time>
      </trkpt>
      <trkpt lat="43.92177" lon="5.36777">
        <ele>375.05</ele>
        <time>2013-12-09T12:26:04Z</time>
      </trkpt>
      <trkpt lat="43.9216" lon="5.36778">
        <ele>374.57</ele>
        <time>2013-12-09T12:26:19Z</time>
      </trkpt>
      <trkpt lat="43.92155" lon="5.36777">
        <ele>375.05</ele>
        <time>2013-12-09T12:26:23Z</time>
      </trkpt>
      <trkpt lat="43.92141" lon="5.36774">
        <ele>374.57</ele>
        <time>2013-12-09T12:26:35Z</time>
      </trkpt>
      <trkpt lat="43.92139" lon="5.36774">
        <ele>374.57</ele>
        <time>2013-12-09T12:26:37Z</time>
      </trkpt>
      <trkpt lat="43.92133" lon="5.36774">
        <ele>374.57</ele>
        <time>2013-12-09T12:26:42Z</time>
      </trkpt>
      <trkpt lat="43.92113" lon="5.3677">
        <ele>375.05</ele>
        <time>2013-12-09T12:27:00Z</time>
      </trkpt>
      <trkpt lat="43.92105" lon="5.36768">
        <ele>375.05</ele>
        <time>2013-12-09T12:27:07Z</time>
      </trkpt>
      <trkpt lat="43.92102" lon="5.36767">
        <ele>375.05</ele>
        <time>2013-12-09T12:27:10Z</time>
      </trkpt>
      <trkpt lat="43.92085" lon="5.36763">
        <ele>376.01</ele>
        <time>2013-12-09T12:27:26Z</time>
      </trkpt>
      <trkpt lat="43.92072" lon="5.3676">
        <ele>376.49</ele>
        <time>2013-12-09T12:27:39Z</time>
      </trkpt>
      <trkpt lat="43.92059" lon="5.36763">
        <ele>377.94</ele>
        <time>2013-12-09T12:27:52Z</time>
      </trkpt>
      <trkpt lat="43.92055" lon="5.36763">
        <ele>377.45</ele>
        <time>2013-12-09T12:27:55Z</time>
      </trkpt>
      <trkpt lat="43.92041" lon="5.36761">
        <ele>379.38</ele>
        <time>2013-12-09T12:28:12Z</time>
      </trkpt>
      <trkpt lat="43.92043" lon="5.36764">
        <ele>378.9</ele>
        <time>2013-12-09T12:28:30Z</time>
      </trkpt>
      <trkpt lat="43.92032" lon="5.36758">
        <ele>379.38</ele>
        <time>2013-12-09T12:28:49Z</time>
      </trkpt>
      <trkpt lat="43.92032" lon="5.36762">
        <ele>379.38</ele>
        <time>2013-12-09T12:28:59Z</time>
      </trkpt>
      <trkpt lat="43.92034" lon="5.36765">
        <ele>379.38</ele>
        <time>2013-12-09T12:29:16Z</time>
      </trkpt>
      <trkpt lat="43.92035" lon="5.36765">
        <ele>379.38</ele>
        <time>2013-12-09T12:29:36Z</time>
      </trkpt>
      <trkpt lat="43.92035" lon="5.36761">
        <ele>379.38</ele>
        <time>2013-12-09T12:30:10Z</time>
      </trkpt>
      <trkpt lat="43.92033" lon="5.36759">
        <ele>379.38</ele>
        <time>2013-12-09T12:30:34Z</time>
      </trkpt>
      <trkpt lat="43.92035" lon="5.36761">
        <ele>379.86</ele>
        <time>2013-12-09T12:30:53Z</time>
      </trkpt>
      <trkpt lat="43.92041" lon="5.3676">
        <ele>379.86</ele>
        <time>2013-12-09T12:31:19Z</time>
      </trkpt>
      <trkpt lat="43.92032" lon="5.36749">
        <ele>379.86</ele>
        <time>2013-12-09T12:31:43Z</time>
      </trkpt>
      <trkpt lat="43.92029" lon="5.36744">
        <ele>379.86</ele>
        <time>2013-12-09T12:32:06Z</time>
      </trkpt>
      <trkpt lat="43.92024" lon="5.36748">
        <ele>380.34</ele>
        <time>2013-12-09T12:32:30Z</time>
      </trkpt>
      <trkpt lat="43.92025" lon="5.36757">
        <ele>380.34</ele>
        <time>2013-12-09T12:32:43Z</time>
      </trkpt>
      <trkpt lat="43.92015" lon="5.36762">
        <ele>381.3</ele>
        <time>2013-12-09T12:32:55Z</time>
      </trkpt>
      <trkpt lat="43.92011" lon="5.36764">
        <ele>381.78</ele>
        <time>2013-12-09T12:33:09Z</time>
      </trkpt>
      <trkpt lat="43.92005" lon="5.36764">
        <ele>382.26</ele>
        <time>2013-12-09T12:33:15Z</time>
      </trkpt>
      <trkpt lat="43.91998" lon="5.36764">
        <ele>382.74</ele>
        <time>2013-12-09T12:33:22Z</time>
      </trkpt>
      <trkpt lat="43.91988" lon="5.36767">
        <ele>382.74</ele>
        <time>2013-12-09T12:33:33Z</time>
      </trkpt>
      <trkpt lat="43.91976" lon="5.36762">
        <ele>383.22</ele>
        <time>2013-12-09T12:33:47Z</time>
      </trkpt>
      <trkpt lat="43.91964" lon="5.36761">
        <ele>383.7</ele>
        <time>2013-12-09T12:34:01Z</time>
      </trkpt>
      <trkpt lat="43.91953" lon="5.36758">
        <ele>384.66</ele>
        <time>2013-12-09T12:34:14Z</time>
      </trkpt>
      <trkpt lat="43.91948" lon="5.36751">
        <ele>384.66</ele>
        <time>2013-12-09T12:34:27Z</time>
      </trkpt>
      <trkpt lat="43.91934" lon="5.36743">
        <ele>385.15</ele>
        <time>2013-12-09T12:34:45Z</time>
      </trkpt>
      <trkpt lat="43.91922" lon="5.36737">
        <ele>386.11</ele>
        <time>2013-12-09T12:34:59Z</time>
      </trkpt>
      <trkpt lat="43.91911" lon="5.36727">
        <ele>386.59</ele>
        <time>2013-12-09T12:35:12Z</time>
      </trkpt>
      <trkpt lat="43.91904" lon="5.36721">
        <ele>387.55</ele>
        <time>2013-12-09T12:35:20Z</time>
      </trkpt>
      <trkpt lat="43.91884" lon="5.36712">
        <ele>388.03</ele>
        <time>2013-12-09T12:35:38Z</time>
      </trkpt>
      <trkpt lat="43.91874" lon="5.36709">
        <ele>388.99</ele>
        <time>2013-12-09T12:35:54Z</time>
      </trkpt>
      <trkpt lat="43.91867" lon="5.36712">
        <ele>388.51</ele>
        <time>2013-12-09T12:36:03Z</time>
      </trkpt>
      <trkpt lat="43.91865" lon="5.36714">
        <ele>388.51</ele>
        <time>2013-12-09T12:36:05Z</time>
      </trkpt>
      <trkpt lat="43.91849" lon="5.36718">
        <ele>387.55</ele>
        <time>2013-12-09T12:36:19Z</time>
      </trkpt>
      <trkpt lat="43.91834" lon="5.36719">
        <ele>386.11</ele>
        <time>2013-12-09T12:36:36Z</time>
      </trkpt>
      <trkpt lat="43.91815" lon="5.36716">
        <ele>385.15</ele>
        <time>2013-12-09T12:36:56Z</time>
      </trkpt>
      <trkpt lat="43.91795" lon="5.36719">
        <ele>385.15</ele>
        <time>2013-12-09T12:37:14Z</time>
      </trkpt>
      <trkpt lat="43.9178" lon="5.36716">
        <ele>385.15</ele>
        <time>2013-12-09T12:37:29Z</time>
      </trkpt>
      <trkpt lat="43.91767" lon="5.36709">
        <ele>386.11</ele>
        <time>2013-12-09T12:37:44Z</time>
      </trkpt>
      <trkpt lat="43.91766" lon="5.36708">
        <ele>386.11</ele>
        <time>2013-12-09T12:37:45Z</time>
      </trkpt>
      <trkpt lat="43.91751" lon="5.36699">
        <ele>387.55</ele>
        <time>2013-12-09T12:38:01Z</time>
      </trkpt>
      <trkpt lat="43.91739" lon="5.36693">
        <ele>388.03</ele>
        <time>2013-12-09T12:38:14Z</time>
      </trkpt>
      <trkpt lat="43.91727" lon="5.36685">
        <ele>388.99</ele>
        <time>2013-12-09T12:38:26Z</time>
      </trkpt>
      <trkpt lat="43.91715" lon="5.36683">
        <ele>389.47</ele>
        <time>2013-12-09T12:38:41Z</time>
      </trkpt>
      <trkpt lat="43.91697" lon="5.36681">
        <ele>389.47</ele>
        <time>2013-12-09T12:38:57Z</time>
      </trkpt>
      <trkpt lat="43.91682" lon="5.36681">
        <ele>389.47</ele>
        <time>2013-12-09T12:39:11Z</time>
      </trkpt>
      <trkpt lat="43.91669" lon="5.36684">
        <ele>389.47</ele>
        <time>2013-12-09T12:39:25Z</time>
      </trkpt>
      <trkpt lat="43.91668" lon="5.36684">
        <ele>388.99</ele>
        <time>2013-12-09T12:39:26Z</time>
      </trkpt>
      <trkpt lat="43.91657" lon="5.3668">
        <ele>388.99</ele>
        <time>2013-12-09T12:39:37Z</time>
      </trkpt>
      <trkpt lat="43.91655" lon="5.3668">
        <ele>388.99</ele>
        <time>2013-12-09T12:39:40Z</time>
      </trkpt>
      <trkpt lat="43.91647" lon="5.36679">
        <ele>388.51</ele>
        <time>2013-12-09T12:39:52Z</time>
      </trkpt>
      <trkpt lat="43.91639" lon="5.36672">
        <ele>388.03</ele>
        <time>2013-12-09T12:40:05Z</time>
      </trkpt>
      <trkpt lat="43.91637" lon="5.36669">
        <ele>388.03</ele>
        <time>2013-12-09T12:40:10Z</time>
      </trkpt>
      <trkpt lat="43.9163" lon="5.36663">
        <ele>388.03</ele>
        <time>2013-12-09T12:40:21Z</time>
      </trkpt>
      <trkpt lat="43.91615" lon="5.36654">
        <ele>387.55</ele>
        <time>2013-12-09T12:40:36Z</time>
      </trkpt>
      <trkpt lat="43.91598" lon="5.36645">
        <ele>386.11</ele>
        <time>2013-12-09T12:40:51Z</time>
      </trkpt>
      <trkpt lat="43.91582" lon="5.36633">
        <ele>384.18</ele>
        <time>2013-12-09T12:41:10Z</time>
      </trkpt>
      <trkpt lat="43.91572" lon="5.36624">
        <ele>383.7</ele>
        <time>2013-12-09T12:41:21Z</time>
      </trkpt>
      <trkpt lat="43.91557" lon="5.36614">
        <ele>384.18</ele>
        <time>2013-12-09T12:41:36Z</time>
      </trkpt>
      <trkpt lat="43.91547" lon="5.36605">
        <ele>385.63</ele>
        <time>2013-12-09T12:41:48Z</time>
      </trkpt>
      <trkpt lat="43.91538" lon="5.36602">
        <ele>386.59</ele>
        <time>2013-12-09T12:41:57Z</time>
      </trkpt>
      <trkpt lat="43.91524" lon="5.36593">
        <ele>388.03</ele>
        <time>2013-12-09T12:42:11Z</time>
      </trkpt>
      <trkpt lat="43.91516" lon="5.36588">
        <ele>388.51</ele>
        <time>2013-12-09T12:42:25Z</time>
      </trkpt>
      <trkpt lat="43.91511" lon="5.36581">
        <ele>389.47</ele>
        <time>2013-12-09T12:42:41Z</time>
      </trkpt>
      <trkpt lat="43.91503" lon="5.36564">
        <ele>390.43</ele>
        <time>2013-12-09T12:42:55Z</time>
      </trkpt>
      <trkpt lat="43.91495" lon="5.36545">
        <ele>391.39</ele>
        <time>2013-12-09T12:43:10Z</time>
      </trkpt>
      <trkpt lat="43.91489" lon="5.3652">
        <ele>392.36</ele>
        <time>2013-12-09T12:43:27Z</time>
      </trkpt>
      <trkpt lat="43.91478" lon="5.36501">
        <ele>393.8</ele>
        <time>2013-12-09T12:43:47Z</time>
      </trkpt>
      <trkpt lat="43.91472" lon="5.36502">
        <ele>393.32</ele>
        <time>2013-12-09T12:43:59Z</time>
      </trkpt>
      <trkpt lat="43.91463" lon="5.36503">
        <ele>392.84</ele>
        <time>2013-12-09T12:44:08Z</time>
      </trkpt>
      <trkpt lat="43.91462" lon="5.36503">
        <ele>392.84</ele>
        <time>2013-12-09T12:44:10Z</time>
      </trkpt>
      <trkpt lat="43.91459" lon="5.36502">
        <ele>392.84</ele>
        <time>2013-12-09T12:44:13Z</time>
      </trkpt>
      <trkpt lat="43.91457" lon="5.36501">
        <ele>392.84</ele>
        <time>2013-12-09T12:44:15Z</time>
      </trkpt>
      <trkpt lat="43.91447" lon="5.36499">
        <ele>392.36</ele>
        <time>2013-12-09T12:44:24Z</time>
      </trkpt>
      <trkpt lat="43.91444" lon="5.36497">
        <ele>392.84</ele>
        <time>2013-12-09T12:44:27Z</time>
      </trkpt>
      <trkpt lat="43.91437" lon="5.3649">
        <ele>392.36</ele>
        <time>2013-12-09T12:44:39Z</time>
      </trkpt>
      <trkpt lat="43.91432" lon="5.36486">
        <ele>392.36</ele>
        <time>2013-12-09T12:44:56Z</time>
      </trkpt>
      <trkpt lat="43.91427" lon="5.36481">
        <ele>392.36</ele>
        <time>2013-12-09T12:45:09Z</time>
      </trkpt>
      <trkpt lat="43.91427" lon="5.36481">
        <ele>392.36</ele>
        <time>2013-12-09T12:45:25Z</time>
      </trkpt>
      <trkpt lat="43.91435" lon="5.36484">
        <ele>392.36</ele>
        <time>2013-12-09T12:45:34Z</time>
      </trkpt>
      <trkpt lat="43.91441" lon="5.36485">
        <ele>393.8</ele>
        <time>2013-12-09T12:45:46Z</time>
      </trkpt>
      <trkpt lat="43.91446" lon="5.36487">
        <ele>395.24</ele>
        <time>2013-12-09T12:46:00Z</time>
      </trkpt>
      <trkpt lat="43.91448" lon="5.36491">
        <ele>395.24</ele>
        <time>2013-12-09T12:46:13Z</time>
      </trkpt>
      <trkpt lat="43.91448" lon="5.36492">
        <ele>395.24</ele>
        <time>2013-12-09T12:46:32Z</time>
      </trkpt>
      <trkpt lat="43.91448" lon="5.36491">
        <ele>394.76</ele>
        <time>2013-12-09T12:46:53Z</time>
      </trkpt>
      <trkpt lat="43.91449" lon="5.36493">
        <ele>394.76</ele>
        <time>2013-12-09T12:47:15Z</time>
      </trkpt>
      <trkpt lat="43.91447" lon="5.36494">
        <ele>394.76</ele>
        <time>2013-12-09T12:47:44Z</time>
      </trkpt>
      <trkpt lat="43.91447" lon="5.36492">
        <ele>395.24</ele>
        <time>2013-12-09T12:48:13Z</time>
      </trkpt>
      <trkpt lat="43.91447" lon="5.3649">
        <ele>394.76</ele>
        <time>2013-12-09T12:48:30Z</time>
      </trkpt>
      <trkpt lat="43.91446" lon="5.36494">
        <ele>394.76</ele>
        <time>2013-12-09T12:48:49Z</time>
      </trkpt>
      <trkpt lat="43.91447" lon="5.36493">
        <ele>395.24</ele>
        <time>2013-12-09T12:49:22Z</time>
      </trkpt>
      <trkpt lat="43.91448" lon="5.36485">
        <ele>395.24</ele>
        <time>2013-12-09T12:49:42Z</time>
      </trkpt>
      <trkpt lat="43.91447" lon="5.36486">
        <ele>395.24</ele>
        <time>2013-12-09T12:50:08Z</time>
      </trkpt>
      <trkpt lat="43.91445" lon="5.3649">
        <ele>395.72</ele>
        <time>2013-12-09T12:50:37Z</time>
      </trkpt>
      <trkpt lat="43.91447" lon="5.36489">
        <ele>395.72</ele>
        <time>2013-12-09T12:51:07Z</time>
      </trkpt>
      <trkpt lat="43.91449" lon="5.3649">
        <ele>395.72</ele>
        <time>2013-12-09T12:51:25Z</time>
      </trkpt>
      <trkpt lat="43.91448" lon="5.36491">
        <ele>395.72</ele>
        <time>2013-12-09T12:51:51Z</time>
      </trkpt>
      <trkpt lat="43.91449" lon="5.36492">
        <ele>395.24</ele>
        <time>2013-12-09T12:52:09Z</time>
      </trkpt>
      <trkpt lat="43.91447" lon="5.36487">
        <ele>395.72</ele>
        <time>2013-12-09T12:52:35Z</time>
      </trkpt>
      <trkpt lat="43.91446" lon="5.36487">
        <ele>395.72</ele>
        <time>2013-12-09T12:52:46Z</time>
      </trkpt>
      <trkpt lat="43.91442" lon="5.36484">
        <ele>393.8</ele>
        <time>2013-12-09T12:53:03Z</time>
      </trkpt>
      <trkpt lat="43.9144" lon="5.36486">
        <ele>393.32</ele>
        <time>2013-12-09T12:53:23Z</time>
      </trkpt>
      <trkpt lat="43.91435" lon="5.36491">
        <ele>392.84</ele>
        <time>2013-12-09T12:53:37Z</time>
      </trkpt>
      <trkpt lat="43.9143" lon="5.36488">
        <ele>392.84</ele>
        <time>2013-12-09T12:53:50Z</time>
      </trkpt>
      <trkpt lat="43.91421" lon="5.36487">
        <ele>391.87</ele>
        <time>2013-12-09T12:54:03Z</time>
      </trkpt>
      <trkpt lat="43.91416" lon="5.3648">
        <ele>392.36</ele>
        <time>2013-12-09T12:54:18Z</time>
      </trkpt>
      <trkpt lat="43.91415" lon="5.36475">
        <ele>392.36</ele>
        <time>2013-12-09T12:54:42Z</time>
      </trkpt>
      <trkpt lat="43.91414" lon="5.36474">
        <ele>392.84</ele>
        <time>2013-12-09T12:55:06Z</time>
      </trkpt>
      <trkpt lat="43.91419" lon="5.36479">
        <ele>393.32</ele>
        <time>2013-12-09T12:55:31Z</time>
      </trkpt>
      <trkpt lat="43.91417" lon="5.36482">
        <ele>393.32</ele>
        <time>2013-12-09T12:55:54Z</time>
      </trkpt>
      <trkpt lat="43.91414" lon="5.36479">
        <ele>393.32</ele>
        <time>2013-12-09T12:56:15Z</time>
      </trkpt>
      <trkpt lat="43.91425" lon="5.36485">
        <ele>392.84</ele>
        <time>2013-12-09T12:56:30Z</time>
      </trkpt>
      <trkpt lat="43.9142" lon="5.36488">
        <ele>391.39</ele>
        <time>2013-12-09T12:56:42Z</time>
      </trkpt>
      <trkpt lat="43.91407" lon="5.3649">
        <ele>389.47</ele>
        <time>2013-12-09T12:57:02Z</time>
      </trkpt>
      <trkpt lat="43.91395" lon="5.36489">
        <ele>387.55</ele>
        <time>2013-12-09T12:57:16Z</time>
      </trkpt>
      <trkpt lat="43.91387" lon="5.36486">
        <ele>386.11</ele>
        <time>2013-12-09T12:57:26Z</time>
      </trkpt>
      <trkpt lat="43.91385" lon="5.36486">
        <ele>386.11</ele>
        <time>2013-12-09T12:57:28Z</time>
      </trkpt>
      <trkpt lat="43.91381" lon="5.36485">
        <ele>385.63</ele>
        <time>2013-12-09T12:57:33Z</time>
      </trkpt>
      <trkpt lat="43.91369" lon="5.3648">
        <ele>384.66</ele>
        <time>2013-12-09T12:57:45Z</time>
      </trkpt>
      <trkpt lat="43.91354" lon="5.36475">
        <ele>383.22</ele>
        <time>2013-12-09T12:58:01Z</time>
      </trkpt>
      <trkpt lat="43.91345" lon="5.36471">
        <ele>382.26</ele>
        <time>2013-12-09T12:58:14Z</time>
      </trkpt>
      <trkpt lat="43.91344" lon="5.3647">
        <ele>381.78</ele>
        <time>2013-12-09T12:58:16Z</time>
      </trkpt>
      <trkpt lat="43.91334" lon="5.36465">
        <ele>380.34</ele>
        <time>2013-12-09T12:58:30Z</time>
      </trkpt>
      <trkpt lat="43.91324" lon="5.36457">
        <ele>378.9</ele>
        <time>2013-12-09T12:58:43Z</time>
      </trkpt>
      <trkpt lat="43.91315" lon="5.36447">
        <ele>377.45</ele>
        <time>2013-12-09T12:58:57Z</time>
      </trkpt>
      <trkpt lat="43.91315" lon="5.36446">
        <ele>377.45</ele>
        <time>2013-12-09T12:58:58Z</time>
      </trkpt>
      <trkpt lat="43.91309" lon="5.36433">
        <ele>376.49</ele>
        <time>2013-12-09T12:59:12Z</time>
      </trkpt>
      <trkpt lat="43.91304" lon="5.36422">
        <ele>375.05</ele>
        <time>2013-12-09T12:59:25Z</time>
      </trkpt>
      <trkpt lat="43.91297" lon="5.36409">
        <ele>373.61</ele>
        <time>2013-12-09T12:59:38Z</time>
      </trkpt>
      <trkpt lat="43.91293" lon="5.36394">
        <ele>371.69</ele>
        <time>2013-12-09T12:59:56Z</time>
      </trkpt>
      <trkpt lat="43.91288" lon="5.36385">
        <ele>370.24</ele>
        <time>2013-12-09T13:00:14Z</time>
      </trkpt>
      <trkpt lat="43.91281" lon="5.36375">
        <ele>368.32</ele>
        <time>2013-12-09T13:00:28Z</time>
      </trkpt>
      <trkpt lat="43.91277" lon="5.36366">
        <ele>366.4</ele>
        <time>2013-12-09T13:00:40Z</time>
      </trkpt>
      <trkpt lat="43.91273" lon="5.36361">
        <ele>364.96</ele>
        <time>2013-12-09T13:00:48Z</time>
      </trkpt>
      <trkpt lat="43.91265" lon="5.36347">
        <ele>362.55</ele>
        <time>2013-12-09T13:01:04Z</time>
      </trkpt>
      <trkpt lat="43.91261" lon="5.36335">
        <ele>360.63</ele>
        <time>2013-12-09T13:01:17Z</time>
      </trkpt>
      <trkpt lat="43.91256" lon="5.36326">
        <ele>357.75</ele>
        <time>2013-12-09T13:01:31Z</time>
      </trkpt>
      <trkpt lat="43.9125" lon="5.3632">
        <ele>355.34</ele>
        <time>2013-12-09T13:01:42Z</time>
      </trkpt>
      <trkpt lat="43.91241" lon="5.36309">
        <ele>352.94</ele>
        <time>2013-12-09T13:01:56Z</time>
      </trkpt>
      <trkpt lat="43.91232" lon="5.36296">
        <ele>350.06</ele>
        <time>2013-12-09T13:02:11Z</time>
      </trkpt>
      <trkpt lat="43.91223" lon="5.36285">
        <ele>347.17</ele>
        <time>2013-12-09T13:02:24Z</time>
      </trkpt>
      <trkpt lat="43.9122" lon="5.3628">
        <ele>346.21</ele>
        <time>2013-12-09T13:02:30Z</time>
      </trkpt>
      <trkpt lat="43.91209" lon="5.36266">
        <ele>344.29</ele>
        <time>2013-12-09T13:02:48Z</time>
      </trkpt>
      <trkpt lat="43.91201" lon="5.3625">
        <ele>341.89</ele>
        <time>2013-12-09T13:03:02Z</time>
      </trkpt>
      <trkpt lat="43.91194" lon="5.36241">
        <ele>339.96</ele>
        <time>2013-12-09T13:03:14Z</time>
      </trkpt>
      <trkpt lat="43.91192" lon="5.36236">
        <ele>339.48</ele>
        <time>2013-12-09T13:03:18Z</time>
      </trkpt>
      <trkpt lat="43.9118" lon="5.36225">
        <ele>337.56</ele>
        <time>2013-12-09T13:03:32Z</time>
      </trkpt>
      <trkpt lat="43.91169" lon="5.36219">
        <ele>335.64</ele>
        <time>2013-12-09T13:03:45Z</time>
      </trkpt>
      <trkpt lat="43.91158" lon="5.36215">
        <ele>333.71</ele>
        <time>2013-12-09T13:03:58Z</time>
      </trkpt>
      <trkpt lat="43.91155" lon="5.36214">
        <ele>333.23</ele>
        <time>2013-12-09T13:04:02Z</time>
      </trkpt>
      <trkpt lat="43.91154" lon="5.36204">
        <ele>332.75</ele>
        <time>2013-12-09T13:04:16Z</time>
      </trkpt>
      <trkpt lat="43.9115" lon="5.362">
        <ele>331.31</ele>
        <time>2013-12-09T13:04:22Z</time>
      </trkpt>
      <trkpt lat="43.91142" lon="5.36187">
        <ele>328.91</ele>
        <time>2013-12-09T13:04:36Z</time>
      </trkpt>
      <trkpt lat="43.91138" lon="5.36174">
        <ele>327.47</ele>
        <time>2013-12-09T13:04:49Z</time>
      </trkpt>
      <trkpt lat="43.91127" lon="5.36161">
        <ele>325.54</ele>
        <time>2013-12-09T13:05:03Z</time>
      </trkpt>
      <trkpt lat="43.91116" lon="5.36157">
        <ele>323.62</ele>
        <time>2013-12-09T13:05:16Z</time>
      </trkpt>
      <trkpt lat="43.91103" lon="5.36149">
        <ele>322.18</ele>
        <time>2013-12-09T13:05:29Z</time>
      </trkpt>
      <trkpt lat="43.91095" lon="5.36142">
        <ele>321.7</ele>
        <time>2013-12-09T13:05:39Z</time>
      </trkpt>
      <trkpt lat="43.91081" lon="5.3613">
        <ele>321.7</ele>
        <time>2013-12-09T13:05:54Z</time>
      </trkpt>
      <trkpt lat="43.91072" lon="5.36126">
        <ele>322.18</ele>
        <time>2013-12-09T13:06:01Z</time>
      </trkpt>
      <trkpt lat="43.9106" lon="5.3612">
        <ele>323.14</ele>
        <time>2013-12-09T13:06:13Z</time>
      </trkpt>
      <trkpt lat="43.91057" lon="5.36116">
        <ele>323.14</ele>
        <time>2013-12-09T13:06:28Z</time>
      </trkpt>
      <trkpt lat="43.91053" lon="5.36113">
        <ele>323.14</ele>
        <time>2013-12-09T13:06:45Z</time>
      </trkpt>
      <trkpt lat="43.91042" lon="5.36106">
        <ele>323.62</ele>
        <time>2013-12-09T13:06:57Z</time>
      </trkpt>
      <trkpt lat="43.91037" lon="5.36107">
        <ele>323.62</ele>
        <time>2013-12-09T13:07:01Z</time>
      </trkpt>
      <trkpt lat="43.91032" lon="5.36106">
        <ele>323.14</ele>
        <time>2013-12-09T13:07:06Z</time>
      </trkpt>
      <trkpt lat="43.91013" lon="5.3611">
        <ele>322.18</ele>
        <time>2013-12-09T13:07:20Z</time>
      </trkpt>
      <trkpt lat="43.90993" lon="5.36108">
        <ele>321.22</ele>
        <time>2013-12-09T13:07:36Z</time>
      </trkpt>
      <trkpt lat="43.90978" lon="5.36102">
        <ele>319.78</ele>
        <time>2013-12-09T13:07:50Z</time>
      </trkpt>
      <trkpt lat="43.90975" lon="5.36099">
        <ele>319.78</ele>
        <time>2013-12-09T13:07:54Z</time>
      </trkpt>
      <trkpt lat="43.90972" lon="5.36095">
        <ele>319.3</ele>
        <time>2013-12-09T13:07:58Z</time>
      </trkpt>
      <trkpt lat="43.90962" lon="5.36088">
        <ele>318.81</ele>
        <time>2013-12-09T13:08:07Z</time>
      </trkpt>
      <trkpt lat="43.90958" lon="5.36083">
        <ele>318.33</ele>
        <time>2013-12-09T13:08:12Z</time>
      </trkpt>
      <trkpt lat="43.90953" lon="5.36076">
        <ele>317.85</ele>
        <time>2013-12-09T13:08:18Z</time>
      </trkpt>
      <trkpt lat="43.90948" lon="5.36072">
        <ele>317.85</ele>
        <time>2013-12-09T13:08:23Z</time>
      </trkpt>
      <trkpt lat="43.90945" lon="5.36068">
        <ele>317.85</ele>
        <time>2013-12-09T13:08:26Z</time>
      </trkpt>
      <trkpt lat="43.90939" lon="5.36063">
        <ele>317.85</ele>
        <time>2013-12-09T13:08:32Z</time>
      </trkpt>
      <trkpt lat="43.90937" lon="5.36059">
        <ele>317.37</ele>
        <time>2013-12-09T13:08:35Z</time>
      </trkpt>
      <trkpt lat="43.90926" lon="5.36048">
        <ele>317.37</ele>
        <time>2013-12-09T13:08:46Z</time>
      </trkpt>
      <trkpt lat="43.90917" lon="5.3604">
        <ele>316.89</ele>
        <time>2013-12-09T13:08:55Z</time>
      </trkpt>
      <trkpt lat="43.90911" lon="5.36029">
        <ele>316.89</ele>
        <time>2013-12-09T13:09:04Z</time>
      </trkpt>
      <trkpt lat="43.90899" lon="5.36022">
        <ele>316.89</ele>
        <time>2013-12-09T13:09:14Z</time>
      </trkpt>
      <trkpt lat="43.90885" lon="5.36014">
        <ele>315.45</ele>
        <time>2013-12-09T13:09:28Z</time>
      </trkpt>
      <trkpt lat="43.90881" lon="5.36012">
        <ele>314.97</ele>
        <time>2013-12-09T13:09:32Z</time>
      </trkpt>
      <trkpt lat="43.90877" lon="5.3601">
        <ele>314.49</ele>
        <time>2013-12-09T13:09:36Z</time>
      </trkpt>
      <trkpt lat="43.90861" lon="5.36003">
        <ele>313.05</ele>
        <time>2013-12-09T13:09:52Z</time>
      </trkpt>
      <trkpt lat="43.90848" lon="5.35993">
        <ele>311.12</ele>
        <time>2013-12-09T13:10:07Z</time>
      </trkpt>
      <trkpt lat="43.90838" lon="5.35984">
        <ele>309.68</ele>
        <time>2013-12-09T13:10:20Z</time>
      </trkpt>
      <trkpt lat="43.90835" lon="5.35982">
        <ele>309.2</ele>
        <time>2013-12-09T13:10:23Z</time>
      </trkpt>
      <trkpt lat="43.90824" lon="5.35972">
        <ele>307.76</ele>
        <time>2013-12-09T13:10:37Z</time>
      </trkpt>
      <trkpt lat="43.90815" lon="5.35964">
        <ele>306.32</ele>
        <time>2013-12-09T13:10:49Z</time>
      </trkpt>
      <trkpt lat="43.90812" lon="5.35962">
        <ele>305.84</ele>
        <time>2013-12-09T13:10:52Z</time>
      </trkpt>
      <trkpt lat="43.908" lon="5.3595">
        <ele>304.39</ele>
        <time>2013-12-09T13:11:06Z</time>
      </trkpt>
      <trkpt lat="43.90797" lon="5.35947">
        <ele>303.91</ele>
        <time>2013-12-09T13:11:10Z</time>
      </trkpt>
      <trkpt lat="43.90786" lon="5.35934">
        <ele>302.47</ele>
        <time>2013-12-09T13:11:23Z</time>
      </trkpt>
      <trkpt lat="43.90784" lon="5.35933">
        <ele>301.99</ele>
        <time>2013-12-09T13:11:26Z</time>
      </trkpt>
      <trkpt lat="43.90779" lon="5.35929">
        <ele>301.99</ele>
        <time>2013-12-09T13:11:39Z</time>
      </trkpt>
      <trkpt lat="43.90778" lon="5.35928">
        <ele>301.99</ele>
        <time>2013-12-09T13:11:41Z</time>
      </trkpt>
      <trkpt lat="43.90763" lon="5.35917">
        <ele>301.03</ele>
        <time>2013-12-09T13:11:58Z</time>
      </trkpt>
      <trkpt lat="43.90752" lon="5.35913">
        <ele>300.07</ele>
        <time>2013-12-09T13:12:09Z</time>
      </trkpt>
      <trkpt lat="43.9074" lon="5.35934">
        <ele>299.59</ele>
        <time>2013-12-09T13:12:26Z</time>
      </trkpt>
      <trkpt lat="43.9073" lon="5.35953">
        <ele>298.15</ele>
        <time>2013-12-09T13:12:40Z</time>
      </trkpt>
      <trkpt lat="43.90717" lon="5.35967">
        <ele>297.18</ele>
        <time>2013-12-09T13:12:55Z</time>
      </trkpt>
      <trkpt lat="43.90703" lon="5.35972">
        <ele>296.7</ele>
        <time>2013-12-09T13:13:10Z</time>
      </trkpt>
      <trkpt lat="43.907" lon="5.35966">
        <ele>296.7</ele>
        <time>2013-12-09T13:13:24Z</time>
      </trkpt>
      <trkpt lat="43.90692" lon="5.3595">
        <ele>297.18</ele>
        <time>2013-12-09T13:13:39Z</time>
      </trkpt>
      <trkpt lat="43.90684" lon="5.35934">
        <ele>296.7</ele>
        <time>2013-12-09T13:13:53Z</time>
      </trkpt>
      <trkpt lat="43.90683" lon="5.35915">
        <ele>296.22</ele>
        <time>2013-12-09T13:14:07Z</time>
      </trkpt>
      <trkpt lat="43.90679" lon="5.35898">
        <ele>295.74</ele>
        <time>2013-12-09T13:14:21Z</time>
      </trkpt>
      <trkpt lat="43.90677" lon="5.3588">
        <ele>295.74</ele>
        <time>2013-12-09T13:14:36Z</time>
      </trkpt>
      <trkpt lat="43.90675" lon="5.35877">
        <ele>295.26</ele>
        <time>2013-12-09T13:14:40Z</time>
      </trkpt>
      <trkpt lat="43.90667" lon="5.35862">
        <ele>294.3</ele>
        <time>2013-12-09T13:14:57Z</time>
      </trkpt>
      <trkpt lat="43.90663" lon="5.35851">
        <ele>293.82</ele>
        <time>2013-12-09T13:15:09Z</time>
      </trkpt>
      <trkpt lat="43.90665" lon="5.35842">
        <ele>293.34</ele>
        <time>2013-12-09T13:15:27Z</time>
      </trkpt>
      <trkpt lat="43.90663" lon="5.35833">
        <ele>292.86</ele>
        <time>2013-12-09T13:15:46Z</time>
      </trkpt>
      <trkpt lat="43.90664" lon="5.35837">
        <ele>293.34</ele>
        <time>2013-12-09T13:16:06Z</time>
      </trkpt>
      <trkpt lat="43.9066" lon="5.35836">
        <ele>292.38</ele>
        <time>2013-12-09T13:16:25Z</time>
      </trkpt>
      <trkpt lat="43.90656" lon="5.35836">
        <ele>292.38</ele>
        <time>2013-12-09T13:16:35Z</time>
      </trkpt>
      <trkpt lat="43.90647" lon="5.35821">
        <ele>290.94</ele>
        <time>2013-12-09T13:16:52Z</time>
      </trkpt>
      <trkpt lat="43.90637" lon="5.35806">
        <ele>289.49</ele>
        <time>2013-12-09T13:17:08Z</time>
      </trkpt>
      <trkpt lat="43.90623" lon="5.35795">
        <ele>288.05</ele>
        <time>2013-12-09T13:17:24Z</time>
      </trkpt>
      <trkpt lat="43.90611" lon="5.35788">
        <ele>287.57</ele>
        <time>2013-12-09T13:17:37Z</time>
      </trkpt>
      <trkpt lat="43.90602" lon="5.35786">
        <ele>286.61</ele>
        <time>2013-12-09T13:17:46Z</time>
      </trkpt>
      <trkpt lat="43.90583" lon="5.35786">
        <ele>285.65</ele>
        <time>2013-12-09T13:18:03Z</time>
      </trkpt>
      <trkpt lat="43.90568" lon="5.35786">
        <ele>284.69</ele>
        <time>2013-12-09T13:18:18Z</time>
      </trkpt>
      <trkpt lat="43.90564" lon="5.35786">
        <ele>284.69</ele>
        <time>2013-12-09T13:18:23Z</time>
      </trkpt>
      <trkpt lat="43.90547" lon="5.35784">
        <ele>283.25</ele>
        <time>2013-12-09T13:18:37Z</time>
      </trkpt>
      <trkpt lat="43.90545" lon="5.35784">
        <ele>283.25</ele>
        <time>2013-12-09T13:18:39Z</time>
      </trkpt>
      <trkpt lat="43.90528" lon="5.35781">
        <ele>281.8</ele>
        <time>2013-12-09T13:18:54Z</time>
      </trkpt>
      <trkpt lat="43.90513" lon="5.35779">
        <ele>280.84</ele>
        <time>2013-12-09T13:19:08Z</time>
      </trkpt>
      <trkpt lat="43.90506" lon="5.35778">
        <ele>280.36</ele>
        <time>2013-12-09T13:19:14Z</time>
      </trkpt>
      <trkpt lat="43.90499" lon="5.35775">
        <ele>279.88</ele>
        <time>2013-12-09T13:19:20Z</time>
      </trkpt>
      <trkpt lat="43.90496" lon="5.35775">
        <ele>279.4</ele>
        <time>2013-12-09T13:19:23Z</time>
      </trkpt>
      <trkpt lat="43.9048" lon="5.35774">
        <ele>278.44</ele>
        <time>2013-12-09T13:19:38Z</time>
      </trkpt>
      <trkpt lat="43.9046" lon="5.3577">
        <ele>277</ele>
        <time>2013-12-09T13:19:55Z</time>
      </trkpt>
      <trkpt lat="43.90454" lon="5.35765">
        <ele>276.52</ele>
        <time>2013-12-09T13:20:06Z</time>
      </trkpt>
      <trkpt lat="43.90444" lon="5.35763">
        <ele>276.04</ele>
        <time>2013-12-09T13:20:17Z</time>
      </trkpt>
      <trkpt lat="43.90435" lon="5.35763">
        <ele>275.07</ele>
        <time>2013-12-09T13:20:26Z</time>
      </trkpt>
      <trkpt lat="43.90433" lon="5.35762">
        <ele>275.07</ele>
        <time>2013-12-09T13:20:28Z</time>
      </trkpt>
      <trkpt lat="43.90421" lon="5.35762">
        <ele>274.59</ele>
        <time>2013-12-09T13:20:39Z</time>
      </trkpt>
      <trkpt lat="43.90408" lon="5.35757">
        <ele>274.11</ele>
        <time>2013-12-09T13:20:52Z</time>
      </trkpt>
      <trkpt lat="43.90399" lon="5.35757">
        <ele>273.63</ele>
        <time>2013-12-09T13:21:02Z</time>
      </trkpt>
      <trkpt lat="43.90397" lon="5.35759">
        <ele>273.63</ele>
        <time>2013-12-09T13:21:05Z</time>
      </trkpt>
      <trkpt lat="43.90385" lon="5.35757">
        <ele>273.15</ele>
        <time>2013-12-09T13:21:18Z</time>
      </trkpt>
      <trkpt lat="43.90375" lon="5.35758">
        <ele>273.63</ele>
        <time>2013-12-09T13:21:29Z</time>
      </trkpt>
      <trkpt lat="43.90372" lon="5.35757">
        <ele>273.63</ele>
        <time>2013-12-09T13:21:32Z</time>
      </trkpt>
      <trkpt lat="43.90365" lon="5.35757">
        <ele>273.63</ele>
        <time>2013-12-09T13:21:38Z</time>
      </trkpt>
      <trkpt lat="43.90358" lon="5.35756">
        <ele>273.63</ele>
        <time>2013-12-09T13:21:44Z</time>
      </trkpt>
      <trkpt lat="43.90352" lon="5.35756">
        <ele>273.63</ele>
        <time>2013-12-09T13:21:57Z</time>
      </trkpt>
      <trkpt lat="43.9035" lon="5.35756">
        <ele>273.63</ele>
        <time>2013-12-09T13:22:22Z</time>
      </trkpt>
      <trkpt lat="43.90352" lon="5.35756">
        <ele>273.63</ele>
        <time>2013-12-09T13:22:41Z</time>
      </trkpt>
      <trkpt lat="43.90352" lon="5.35756">
        <ele>273.63</ele>
        <time>2013-12-09T13:22:55Z</time>
      </trkpt>
    </trkseg>
  </trk>
</gpx>